<?xml version="1.0" encoding="UTF-8" standalone="no" ?>
<gpx xmlns="http://www.topografix.com/GPX/1/1" xmlns:xsi="http://www.w3.org/2001/XMLSchema-instance" xsi:schemaLocation="http://www.topografix.com/GPX/1/1 http://www.topografix.com/GPX/1/1/gpx.xsd" version="1.1" creator="VisuGPX - https://www.visugpx.com">
  <metadata>
    <name>Radar Lias depuis Labourdayre 13Km</name>
  </metadata>
  <wpt lat="43.56271" lon="1.17734">
    <ele>199</ele>
    <name><![CDATA[a droite vers centre equestre]]></name>
  </wpt>
  <wpt lat="43.56869" lon="1.17985">
    <ele>198</ele>
    <name><![CDATA[entrée sous bois chemin]]></name>
  </wpt>
  <wpt lat="43.57279" lon="1.17273">
    <ele>216</ele>
    <name><![CDATA[a gauche]]></name>
  </wpt>
  <wpt lat="43.5693" lon="1.16935">
    <ele>216</ele>
    <name><![CDATA[chemin a droite]]></name>
  </wpt>
  <wpt lat="43.5694" lon="1.16845">
    <ele>216</ele>
    <name><![CDATA[a gauche de la haie]]></name>
  </wpt>
  <wpt lat="43.57385" lon="1.16258">
    <ele>283</ele>
    <name><![CDATA[tout droit]]></name>
  </wpt>
  <wpt lat="43.57989" lon="1.15038">
    <ele>288</ele>
    <name><![CDATA[le moulin]]></name>
  </wpt>
  <wpt lat="43.57958" lon="1.13471">
    <ele>304</ele>
    <name><![CDATA[a gauche contournez le radar]]></name>
  </wpt>
  <wpt lat="43.57664" lon="1.14111">
    <ele>277</ele>
    <name><![CDATA[chemin a droite]]></name>
  </wpt>
  <wpt lat="43.57254" lon="1.15067">
    <ele>233</ele>
    <name><![CDATA[a gauche bordure champ]]></name>
  </wpt>
  <wpt lat="43.56559" lon="1.16184">
    <ele>211</ele>
    <name><![CDATA[Sentier dans la haie a droite]]></name>
  </wpt>
  <wpt lat="43.56411" lon="1.16131">
    <ele>216</ele>
    <name><![CDATA[passage a gué]]></name>
  </wpt>
  <wpt lat="43.56075" lon="1.1697">
    <ele>205</ele>
    <name><![CDATA[chemin a droite entrée village]]></name>
  </wpt>
  <wpt lat="43.55788" lon="1.17507">
    <ele>203</ele>
    <name><![CDATA[tout droit voitures droit devant]]></name>
  </wpt>
  <trk>
    <name><![CDATA[Randonnée du 26/09/2019 à 11:00]]></name>
    <trkseg>
      <trkpt lat="43.55718" lon="1.1777">
        <ele>198</ele>
        <time>2019-09-26T11:00:52+02:00</time>
      </trkpt>
      <trkpt lat="43.55716" lon="1.17784">
        <ele>192</ele>
        <time>2019-09-26T11:01:10+02:00</time>
      </trkpt>
      <trkpt lat="43.55718" lon="1.17796">
        <ele>193</ele>
        <time>2019-09-26T11:01:16+02:00</time>
      </trkpt>
      <trkpt lat="43.55713" lon="1.17807">
        <ele>193</ele>
        <time>2019-09-26T11:01:23+02:00</time>
      </trkpt>
      <trkpt lat="43.55708" lon="1.17817">
        <ele>193</ele>
        <time>2019-09-26T11:01:28+02:00</time>
      </trkpt>
      <trkpt lat="43.55709" lon="1.1783">
        <ele>193</ele>
        <time>2019-09-26T11:01:35+02:00</time>
      </trkpt>
      <trkpt lat="43.55712" lon="1.17844">
        <ele>193</ele>
        <time>2019-09-26T11:02:02+02:00</time>
      </trkpt>
      <trkpt lat="43.55715" lon="1.17857">
        <ele>194</ele>
        <time>2019-09-26T11:02:09+02:00</time>
      </trkpt>
      <trkpt lat="43.55718" lon="1.17869">
        <ele>195</ele>
        <time>2019-09-26T11:02:13+02:00</time>
      </trkpt>
      <trkpt lat="43.55718" lon="1.17883">
        <ele>198</ele>
        <time>2019-09-26T11:02:20+02:00</time>
      </trkpt>
      <trkpt lat="43.55719" lon="1.17897">
        <ele>200</ele>
        <time>2019-09-26T11:02:25+02:00</time>
      </trkpt>
      <trkpt lat="43.55721" lon="1.1791">
        <ele>200</ele>
        <time>2019-09-26T11:02:32+02:00</time>
      </trkpt>
      <trkpt lat="43.55723" lon="1.17923">
        <ele>200</ele>
        <time>2019-09-26T11:02:37+02:00</time>
      </trkpt>
      <trkpt lat="43.55723" lon="1.17936">
        <ele>200</ele>
        <time>2019-09-26T11:02:43+02:00</time>
      </trkpt>
      <trkpt lat="43.55727" lon="1.17949">
        <ele>199</ele>
        <time>2019-09-26T11:02:50+02:00</time>
      </trkpt>
      <trkpt lat="43.55733" lon="1.17959">
        <ele>197</ele>
        <time>2019-09-26T11:02:57+02:00</time>
      </trkpt>
      <trkpt lat="43.55739" lon="1.1797">
        <ele>198</ele>
        <time>2019-09-26T11:03:03+02:00</time>
      </trkpt>
      <trkpt lat="43.55746" lon="1.1798">
        <ele>196</ele>
        <time>2019-09-26T11:03:09+02:00</time>
      </trkpt>
      <trkpt lat="43.55755" lon="1.17986">
        <ele>196</ele>
        <time>2019-09-26T11:03:16+02:00</time>
      </trkpt>
      <trkpt lat="43.55764" lon="1.17991">
        <ele>196</ele>
        <time>2019-09-26T11:03:21+02:00</time>
      </trkpt>
      <trkpt lat="43.55774" lon="1.17996">
        <ele>198</ele>
        <time>2019-09-26T11:03:29+02:00</time>
      </trkpt>
      <trkpt lat="43.55784" lon="1.17999">
        <ele>198</ele>
        <time>2019-09-26T11:03:34+02:00</time>
      </trkpt>
      <trkpt lat="43.55793" lon="1.18003">
        <ele>199</ele>
        <time>2019-09-26T11:03:40+02:00</time>
      </trkpt>
      <trkpt lat="43.55802" lon="1.18007">
        <ele>199</ele>
        <time>2019-09-26T11:03:46+02:00</time>
      </trkpt>
      <trkpt lat="43.5581" lon="1.18012">
        <ele>199</ele>
        <time>2019-09-26T11:03:52+02:00</time>
      </trkpt>
      <trkpt lat="43.55821" lon="1.18016">
        <ele>199</ele>
        <time>2019-09-26T11:03:59+02:00</time>
      </trkpt>
      <trkpt lat="43.5583" lon="1.18018">
        <ele>199</ele>
        <time>2019-09-26T11:04:04+02:00</time>
      </trkpt>
      <trkpt lat="43.5584" lon="1.18022">
        <ele>199</ele>
        <time>2019-09-26T11:04:11+02:00</time>
      </trkpt>
      <trkpt lat="43.55849" lon="1.18023">
        <ele>200</ele>
        <time>2019-09-26T11:04:15+02:00</time>
      </trkpt>
      <trkpt lat="43.5586" lon="1.18026">
        <ele>201</ele>
        <time>2019-09-26T11:04:23+02:00</time>
      </trkpt>
      <trkpt lat="43.5587" lon="1.18027">
        <ele>202</ele>
        <time>2019-09-26T11:04:28+02:00</time>
      </trkpt>
      <trkpt lat="43.5588" lon="1.18029">
        <ele>203</ele>
        <time>2019-09-26T11:04:35+02:00</time>
      </trkpt>
      <trkpt lat="43.55889" lon="1.18027">
        <ele>203</ele>
        <time>2019-09-26T11:04:40+02:00</time>
      </trkpt>
      <trkpt lat="43.55897" lon="1.18032">
        <ele>202</ele>
        <time>2019-09-26T11:04:45+02:00</time>
      </trkpt>
      <trkpt lat="43.55906" lon="1.18036">
        <ele>201</ele>
        <time>2019-09-26T11:04:50+02:00</time>
      </trkpt>
      <trkpt lat="43.55916" lon="1.1804">
        <ele>200</ele>
        <time>2019-09-26T11:04:55+02:00</time>
      </trkpt>
      <trkpt lat="43.55926" lon="1.18045">
        <ele>200</ele>
        <time>2019-09-26T11:05:02+02:00</time>
      </trkpt>
      <trkpt lat="43.55936" lon="1.18051">
        <ele>200</ele>
        <time>2019-09-26T11:05:10+02:00</time>
      </trkpt>
      <trkpt lat="43.55944" lon="1.18056">
        <ele>200</ele>
        <time>2019-09-26T11:05:14+02:00</time>
      </trkpt>
      <trkpt lat="43.55953" lon="1.18061">
        <ele>200</ele>
        <time>2019-09-26T11:05:19+02:00</time>
      </trkpt>
      <trkpt lat="43.55962" lon="1.18068">
        <ele>200</ele>
        <time>2019-09-26T11:05:26+02:00</time>
      </trkpt>
      <trkpt lat="43.55971" lon="1.18073">
        <ele>200</ele>
        <time>2019-09-26T11:05:32+02:00</time>
      </trkpt>
      <trkpt lat="43.5598" lon="1.18077">
        <ele>199</ele>
        <time>2019-09-26T11:05:39+02:00</time>
      </trkpt>
      <trkpt lat="43.55991" lon="1.1808">
        <ele>200</ele>
        <time>2019-09-26T11:05:43+02:00</time>
      </trkpt>
      <trkpt lat="43.56" lon="1.1808">
        <ele>200</ele>
        <time>2019-09-26T11:05:47+02:00</time>
      </trkpt>
      <trkpt lat="43.5601" lon="1.18077">
        <ele>201</ele>
        <time>2019-09-26T11:05:56+02:00</time>
      </trkpt>
      <trkpt lat="43.56019" lon="1.18074">
        <ele>201</ele>
        <time>2019-09-26T11:06:01+02:00</time>
      </trkpt>
      <trkpt lat="43.56028" lon="1.18071">
        <ele>201</ele>
        <time>2019-09-26T11:06:08+02:00</time>
      </trkpt>
      <trkpt lat="43.56037" lon="1.18066">
        <ele>201</ele>
        <time>2019-09-26T11:06:13+02:00</time>
      </trkpt>
      <trkpt lat="43.56045" lon="1.18059">
        <ele>199</ele>
        <time>2019-09-26T11:06:18+02:00</time>
      </trkpt>
      <trkpt lat="43.56054" lon="1.18052">
        <ele>199</ele>
        <time>2019-09-26T11:06:25+02:00</time>
      </trkpt>
      <trkpt lat="43.56063" lon="1.18047">
        <ele>199</ele>
        <time>2019-09-26T11:06:31+02:00</time>
      </trkpt>
      <trkpt lat="43.56071" lon="1.18038">
        <ele>198</ele>
        <time>2019-09-26T11:06:38+02:00</time>
      </trkpt>
      <trkpt lat="43.56078" lon="1.18029">
        <ele>198</ele>
        <time>2019-09-26T11:06:43+02:00</time>
      </trkpt>
      <trkpt lat="43.56085" lon="1.18022">
        <ele>200</ele>
        <time>2019-09-26T11:06:48+02:00</time>
      </trkpt>
      <trkpt lat="43.56095" lon="1.18014">
        <ele>199</ele>
        <time>2019-09-26T11:06:55+02:00</time>
      </trkpt>
      <trkpt lat="43.56101" lon="1.18004">
        <ele>199</ele>
        <time>2019-09-26T11:07:00+02:00</time>
      </trkpt>
      <trkpt lat="43.56108" lon="1.17995">
        <ele>199</ele>
        <time>2019-09-26T11:07:07+02:00</time>
      </trkpt>
      <trkpt lat="43.56113" lon="1.17983">
        <ele>199</ele>
        <time>2019-09-26T11:07:12+02:00</time>
      </trkpt>
      <trkpt lat="43.56119" lon="1.17973">
        <ele>198</ele>
        <time>2019-09-26T11:07:19+02:00</time>
      </trkpt>
      <trkpt lat="43.56125" lon="1.17964">
        <ele>198</ele>
        <time>2019-09-26T11:07:23+02:00</time>
      </trkpt>
      <trkpt lat="43.56132" lon="1.17955">
        <ele>198</ele>
        <time>2019-09-26T11:07:29+02:00</time>
      </trkpt>
      <trkpt lat="43.56138" lon="1.17945">
        <ele>198</ele>
        <time>2019-09-26T11:07:34+02:00</time>
      </trkpt>
      <trkpt lat="43.56145" lon="1.17935">
        <ele>198</ele>
        <time>2019-09-26T11:07:41+02:00</time>
      </trkpt>
      <trkpt lat="43.56151" lon="1.17925">
        <ele>199</ele>
        <time>2019-09-26T11:07:46+02:00</time>
      </trkpt>
      <trkpt lat="43.56158" lon="1.17917">
        <ele>200</ele>
        <time>2019-09-26T11:07:53+02:00</time>
      </trkpt>
      <trkpt lat="43.56166" lon="1.17907">
        <ele>200</ele>
        <time>2019-09-26T11:07:59+02:00</time>
      </trkpt>
      <trkpt lat="43.56174" lon="1.179">
        <ele>201</ele>
        <time>2019-09-26T11:08:06+02:00</time>
      </trkpt>
      <trkpt lat="43.56181" lon="1.1789">
        <ele>201</ele>
        <time>2019-09-26T11:08:11+02:00</time>
      </trkpt>
      <trkpt lat="43.5619" lon="1.17882">
        <ele>200</ele>
        <time>2019-09-26T11:08:17+02:00</time>
      </trkpt>
      <trkpt lat="43.56196" lon="1.17871">
        <ele>198</ele>
        <time>2019-09-26T11:08:24+02:00</time>
      </trkpt>
      <trkpt lat="43.56203" lon="1.17862">
        <ele>198</ele>
        <time>2019-09-26T11:08:29+02:00</time>
      </trkpt>
      <trkpt lat="43.56209" lon="1.17852">
        <ele>198</ele>
        <time>2019-09-26T11:08:36+02:00</time>
      </trkpt>
      <trkpt lat="43.56213" lon="1.1784">
        <ele>198</ele>
        <time>2019-09-26T11:08:41+02:00</time>
      </trkpt>
      <trkpt lat="43.56219" lon="1.17828">
        <ele>199</ele>
        <time>2019-09-26T11:08:47+02:00</time>
      </trkpt>
      <trkpt lat="43.56225" lon="1.17817">
        <ele>200</ele>
        <time>2019-09-26T11:08:53+02:00</time>
      </trkpt>
      <trkpt lat="43.56231" lon="1.17807">
        <ele>200</ele>
        <time>2019-09-26T11:09:00+02:00</time>
      </trkpt>
      <trkpt lat="43.56238" lon="1.17798">
        <ele>200</ele>
        <time>2019-09-26T11:09:05+02:00</time>
      </trkpt>
      <trkpt lat="43.56243" lon="1.17788">
        <ele>199</ele>
        <time>2019-09-26T11:09:10+02:00</time>
      </trkpt>
      <trkpt lat="43.56248" lon="1.17777">
        <ele>200</ele>
        <time>2019-09-26T11:09:17+02:00</time>
      </trkpt>
      <trkpt lat="43.56253" lon="1.17767">
        <ele>199</ele>
        <time>2019-09-26T11:09:22+02:00</time>
      </trkpt>
      <trkpt lat="43.56259" lon="1.17756">
        <ele>199</ele>
        <time>2019-09-26T11:09:27+02:00</time>
      </trkpt>
      <trkpt lat="43.56264" lon="1.17744">
        <ele>198</ele>
        <time>2019-09-26T11:09:34+02:00</time>
      </trkpt>
      <trkpt lat="43.56271" lon="1.17734">
        <ele>199</ele>
        <time>2019-09-26T11:09:43+02:00</time>
      </trkpt>
      <trkpt lat="43.5628" lon="1.17733">
        <ele>196</ele>
        <time>2019-09-26T11:10:11+02:00</time>
      </trkpt>
      <trkpt lat="43.56289" lon="1.17737">
        <ele>197</ele>
        <time>2019-09-26T11:10:17+02:00</time>
      </trkpt>
      <trkpt lat="43.56298" lon="1.17741">
        <ele>198</ele>
        <time>2019-09-26T11:10:22+02:00</time>
      </trkpt>
      <trkpt lat="43.56308" lon="1.17745">
        <ele>200</ele>
        <time>2019-09-26T11:10:29+02:00</time>
      </trkpt>
      <trkpt lat="43.56317" lon="1.1775">
        <ele>200</ele>
        <time>2019-09-26T11:10:37+02:00</time>
      </trkpt>
      <trkpt lat="43.56326" lon="1.17755">
        <ele>200</ele>
        <time>2019-09-26T11:10:42+02:00</time>
      </trkpt>
      <trkpt lat="43.56336" lon="1.1776">
        <ele>199</ele>
        <time>2019-09-26T11:10:47+02:00</time>
      </trkpt>
      <trkpt lat="43.56346" lon="1.17764">
        <ele>197</ele>
        <time>2019-09-26T11:10:53+02:00</time>
      </trkpt>
      <trkpt lat="43.56356" lon="1.17768">
        <ele>197</ele>
        <time>2019-09-26T11:10:59+02:00</time>
      </trkpt>
      <trkpt lat="43.56367" lon="1.17772">
        <ele>197</ele>
        <time>2019-09-26T11:11:05+02:00</time>
      </trkpt>
      <trkpt lat="43.56377" lon="1.17774">
        <ele>197</ele>
        <time>2019-09-26T11:11:11+02:00</time>
      </trkpt>
      <trkpt lat="43.56386" lon="1.17779">
        <ele>198</ele>
        <time>2019-09-26T11:11:17+02:00</time>
      </trkpt>
      <trkpt lat="43.56395" lon="1.17783">
        <ele>198</ele>
        <time>2019-09-26T11:11:23+02:00</time>
      </trkpt>
      <trkpt lat="43.56404" lon="1.17787">
        <ele>197</ele>
        <time>2019-09-26T11:11:28+02:00</time>
      </trkpt>
      <trkpt lat="43.56414" lon="1.17791">
        <ele>198</ele>
        <time>2019-09-26T11:11:34+02:00</time>
      </trkpt>
      <trkpt lat="43.56423" lon="1.17795">
        <ele>199</ele>
        <time>2019-09-26T11:11:40+02:00</time>
      </trkpt>
      <trkpt lat="43.56432" lon="1.178">
        <ele>201</ele>
        <time>2019-09-26T11:11:45+02:00</time>
      </trkpt>
      <trkpt lat="43.56442" lon="1.17804">
        <ele>202</ele>
        <time>2019-09-26T11:11:52+02:00</time>
      </trkpt>
      <trkpt lat="43.56451" lon="1.17807">
        <ele>203</ele>
        <time>2019-09-26T11:11:57+02:00</time>
      </trkpt>
      <trkpt lat="43.56461" lon="1.17812">
        <ele>203</ele>
        <time>2019-09-26T11:12:03+02:00</time>
      </trkpt>
      <trkpt lat="43.56472" lon="1.17816">
        <ele>203</ele>
        <time>2019-09-26T11:12:09+02:00</time>
      </trkpt>
      <trkpt lat="43.56481" lon="1.1782">
        <ele>203</ele>
        <time>2019-09-26T11:12:14+02:00</time>
      </trkpt>
      <trkpt lat="43.5649" lon="1.17826">
        <ele>203</ele>
        <time>2019-09-26T11:12:20+02:00</time>
      </trkpt>
      <trkpt lat="43.565" lon="1.17829">
        <ele>203</ele>
        <time>2019-09-26T11:12:25+02:00</time>
      </trkpt>
      <trkpt lat="43.5651" lon="1.17833">
        <ele>201</ele>
        <time>2019-09-26T11:12:32+02:00</time>
      </trkpt>
      <trkpt lat="43.56519" lon="1.17836">
        <ele>201</ele>
        <time>2019-09-26T11:12:39+02:00</time>
      </trkpt>
      <trkpt lat="43.56528" lon="1.17841">
        <ele>200</ele>
        <time>2019-09-26T11:12:43+02:00</time>
      </trkpt>
      <trkpt lat="43.56538" lon="1.17844">
        <ele>200</ele>
        <time>2019-09-26T11:12:49+02:00</time>
      </trkpt>
      <trkpt lat="43.56548" lon="1.17849">
        <ele>200</ele>
        <time>2019-09-26T11:12:54+02:00</time>
      </trkpt>
      <trkpt lat="43.56557" lon="1.17854">
        <ele>201</ele>
        <time>2019-09-26T11:13:01+02:00</time>
      </trkpt>
      <trkpt lat="43.56566" lon="1.17858">
        <ele>201</ele>
        <time>2019-09-26T11:13:05+02:00</time>
      </trkpt>
      <trkpt lat="43.56575" lon="1.17862">
        <ele>202</ele>
        <time>2019-09-26T11:13:11+02:00</time>
      </trkpt>
      <trkpt lat="43.56584" lon="1.17866">
        <ele>202</ele>
        <time>2019-09-26T11:13:16+02:00</time>
      </trkpt>
      <trkpt lat="43.56594" lon="1.1787">
        <ele>202</ele>
        <time>2019-09-26T11:13:22+02:00</time>
      </trkpt>
      <trkpt lat="43.56603" lon="1.17874">
        <ele>203</ele>
        <time>2019-09-26T11:13:27+02:00</time>
      </trkpt>
      <trkpt lat="43.56612" lon="1.17876">
        <ele>203</ele>
        <time>2019-09-26T11:13:31+02:00</time>
      </trkpt>
      <trkpt lat="43.56622" lon="1.17879">
        <ele>204</ele>
        <time>2019-09-26T11:13:36+02:00</time>
      </trkpt>
      <trkpt lat="43.56631" lon="1.17885">
        <ele>204</ele>
        <time>2019-09-26T11:13:42+02:00</time>
      </trkpt>
      <trkpt lat="43.56641" lon="1.1789">
        <ele>204</ele>
        <time>2019-09-26T11:13:46+02:00</time>
      </trkpt>
      <trkpt lat="43.56652" lon="1.17894">
        <ele>203</ele>
        <time>2019-09-26T11:13:52+02:00</time>
      </trkpt>
      <trkpt lat="43.56661" lon="1.17897">
        <ele>202</ele>
        <time>2019-09-26T11:13:58+02:00</time>
      </trkpt>
      <trkpt lat="43.56669" lon="1.17901">
        <ele>202</ele>
        <time>2019-09-26T11:14:02+02:00</time>
      </trkpt>
      <trkpt lat="43.5668" lon="1.17907">
        <ele>202</ele>
        <time>2019-09-26T11:14:08+02:00</time>
      </trkpt>
      <trkpt lat="43.5669" lon="1.17911">
        <ele>201</ele>
        <time>2019-09-26T11:14:14+02:00</time>
      </trkpt>
      <trkpt lat="43.56699" lon="1.17915">
        <ele>202</ele>
        <time>2019-09-26T11:14:19+02:00</time>
      </trkpt>
      <trkpt lat="43.56708" lon="1.17919">
        <ele>202</ele>
        <time>2019-09-26T11:14:24+02:00</time>
      </trkpt>
      <trkpt lat="43.56717" lon="1.17923">
        <ele>201</ele>
        <time>2019-09-26T11:14:30+02:00</time>
      </trkpt>
      <trkpt lat="43.56727" lon="1.17927">
        <ele>202</ele>
        <time>2019-09-26T11:14:36+02:00</time>
      </trkpt>
      <trkpt lat="43.56736" lon="1.17932">
        <ele>203</ele>
        <time>2019-09-26T11:14:40+02:00</time>
      </trkpt>
      <trkpt lat="43.56744" lon="1.17936">
        <ele>204</ele>
        <time>2019-09-26T11:14:45+02:00</time>
      </trkpt>
      <trkpt lat="43.56754" lon="1.1794">
        <ele>203</ele>
        <time>2019-09-26T11:14:51+02:00</time>
      </trkpt>
      <trkpt lat="43.56763" lon="1.17944">
        <ele>204</ele>
        <time>2019-09-26T11:14:55+02:00</time>
      </trkpt>
      <trkpt lat="43.56773" lon="1.17949">
        <ele>202</ele>
        <time>2019-09-26T11:15:01+02:00</time>
      </trkpt>
      <trkpt lat="43.56782" lon="1.17953">
        <ele>202</ele>
        <time>2019-09-26T11:15:07+02:00</time>
      </trkpt>
      <trkpt lat="43.56791" lon="1.17956">
        <ele>202</ele>
        <time>2019-09-26T11:15:12+02:00</time>
      </trkpt>
      <trkpt lat="43.568" lon="1.1796">
        <ele>202</ele>
        <time>2019-09-26T11:15:16+02:00</time>
      </trkpt>
      <trkpt lat="43.56809" lon="1.17963">
        <ele>202</ele>
        <time>2019-09-26T11:15:22+02:00</time>
      </trkpt>
      <trkpt lat="43.5682" lon="1.17967">
        <ele>201</ele>
        <time>2019-09-26T11:15:28+02:00</time>
      </trkpt>
      <trkpt lat="43.5683" lon="1.1797">
        <ele>201</ele>
        <time>2019-09-26T11:15:32+02:00</time>
      </trkpt>
      <trkpt lat="43.5684" lon="1.17974">
        <ele>199</ele>
        <time>2019-09-26T11:15:40+02:00</time>
      </trkpt>
      <trkpt lat="43.5685" lon="1.17977">
        <ele>199</ele>
        <time>2019-09-26T11:15:46+02:00</time>
      </trkpt>
      <trkpt lat="43.56859" lon="1.17981">
        <ele>198</ele>
        <time>2019-09-26T11:15:52+02:00</time>
      </trkpt>
      <trkpt lat="43.56869" lon="1.17985">
        <ele>198</ele>
        <time>2019-09-26T11:15:58+02:00</time>
      </trkpt>
      <trkpt lat="43.56877" lon="1.17988">
        <ele>196</ele>
        <time>2019-09-26T11:16:04+02:00</time>
      </trkpt>
      <trkpt lat="43.56886" lon="1.17991">
        <ele>195</ele>
        <time>2019-09-26T11:16:11+02:00</time>
      </trkpt>
      <trkpt lat="43.56896" lon="1.17995">
        <ele>192</ele>
        <time>2019-09-26T11:16:29+02:00</time>
      </trkpt>
      <trkpt lat="43.56905" lon="1.17999">
        <ele>190</ele>
        <time>2019-09-26T11:16:34+02:00</time>
      </trkpt>
      <trkpt lat="43.56915" lon="1.18003">
        <ele>189</ele>
        <time>2019-09-26T11:16:39+02:00</time>
      </trkpt>
      <trkpt lat="43.56924" lon="1.18008">
        <ele>190</ele>
        <time>2019-09-26T11:16:46+02:00</time>
      </trkpt>
      <trkpt lat="43.56933" lon="1.18003">
        <ele>189</ele>
        <time>2019-09-26T11:17:00+02:00</time>
      </trkpt>
      <trkpt lat="43.56942" lon="1.18012">
        <ele>188</ele>
        <time>2019-09-26T11:17:06+02:00</time>
      </trkpt>
      <trkpt lat="43.56952" lon="1.18016">
        <ele>189</ele>
        <time>2019-09-26T11:17:10+02:00</time>
      </trkpt>
      <trkpt lat="43.56963" lon="1.18021">
        <ele>189</ele>
        <time>2019-09-26T11:17:15+02:00</time>
      </trkpt>
      <trkpt lat="43.56972" lon="1.18026">
        <ele>190</ele>
        <time>2019-09-26T11:17:22+02:00</time>
      </trkpt>
      <trkpt lat="43.56982" lon="1.18031">
        <ele>191</ele>
        <time>2019-09-26T11:17:28+02:00</time>
      </trkpt>
      <trkpt lat="43.5699" lon="1.18038">
        <ele>192</ele>
        <time>2019-09-26T11:17:34+02:00</time>
      </trkpt>
      <trkpt lat="43.57" lon="1.18042">
        <ele>194</ele>
        <time>2019-09-26T11:17:41+02:00</time>
      </trkpt>
      <trkpt lat="43.57009" lon="1.18046">
        <ele>195</ele>
        <time>2019-09-26T11:17:46+02:00</time>
      </trkpt>
      <trkpt lat="43.57017" lon="1.18053">
        <ele>196</ele>
        <time>2019-09-26T11:17:50+02:00</time>
      </trkpt>
      <trkpt lat="43.57027" lon="1.18055">
        <ele>196</ele>
        <time>2019-09-26T11:17:56+02:00</time>
      </trkpt>
      <trkpt lat="43.57036" lon="1.18057">
        <ele>196</ele>
        <time>2019-09-26T11:18:01+02:00</time>
      </trkpt>
      <trkpt lat="43.57046" lon="1.18063">
        <ele>197</ele>
        <time>2019-09-26T11:18:07+02:00</time>
      </trkpt>
      <trkpt lat="43.57055" lon="1.18066">
        <ele>196</ele>
        <time>2019-09-26T11:18:12+02:00</time>
      </trkpt>
      <trkpt lat="43.57065" lon="1.18069">
        <ele>197</ele>
        <time>2019-09-26T11:18:18+02:00</time>
      </trkpt>
      <trkpt lat="43.57074" lon="1.18071">
        <ele>199</ele>
        <time>2019-09-26T11:18:23+02:00</time>
      </trkpt>
      <trkpt lat="43.57084" lon="1.18069">
        <ele>200</ele>
        <time>2019-09-26T11:18:30+02:00</time>
      </trkpt>
      <trkpt lat="43.57095" lon="1.18066">
        <ele>202</ele>
        <time>2019-09-26T11:18:37+02:00</time>
      </trkpt>
      <trkpt lat="43.57104" lon="1.18064">
        <ele>204</ele>
        <time>2019-09-26T11:18:43+02:00</time>
      </trkpt>
      <trkpt lat="43.57113" lon="1.18064">
        <ele>204</ele>
        <time>2019-09-26T11:18:46+02:00</time>
      </trkpt>
      <trkpt lat="43.57123" lon="1.18062">
        <ele>206</ele>
        <time>2019-09-26T11:18:51+02:00</time>
      </trkpt>
      <trkpt lat="43.57135" lon="1.18061">
        <ele>204</ele>
        <time>2019-09-26T11:18:59+02:00</time>
      </trkpt>
      <trkpt lat="43.57145" lon="1.18059">
        <ele>203</ele>
        <time>2019-09-26T11:19:03+02:00</time>
      </trkpt>
      <trkpt lat="43.57154" lon="1.18058">
        <ele>202</ele>
        <time>2019-09-26T11:19:07+02:00</time>
      </trkpt>
      <trkpt lat="43.57164" lon="1.18054">
        <ele>201</ele>
        <time>2019-09-26T11:19:12+02:00</time>
      </trkpt>
      <trkpt lat="43.57174" lon="1.18052">
        <ele>199</ele>
        <time>2019-09-26T11:19:20+02:00</time>
      </trkpt>
      <trkpt lat="43.57185" lon="1.1805">
        <ele>200</ele>
        <time>2019-09-26T11:19:26+02:00</time>
      </trkpt>
      <trkpt lat="43.57194" lon="1.1805">
        <ele>200</ele>
        <time>2019-09-26T11:19:31+02:00</time>
      </trkpt>
      <trkpt lat="43.57203" lon="1.18049">
        <ele>200</ele>
        <time>2019-09-26T11:19:36+02:00</time>
      </trkpt>
      <trkpt lat="43.57213" lon="1.1805">
        <ele>200</ele>
        <time>2019-09-26T11:19:40+02:00</time>
      </trkpt>
      <trkpt lat="43.57223" lon="1.1805">
        <ele>201</ele>
        <time>2019-09-26T11:19:45+02:00</time>
      </trkpt>
      <trkpt lat="43.57233" lon="1.18051">
        <ele>200</ele>
        <time>2019-09-26T11:19:50+02:00</time>
      </trkpt>
      <trkpt lat="43.57243" lon="1.18052">
        <ele>202</ele>
        <time>2019-09-26T11:19:56+02:00</time>
      </trkpt>
      <trkpt lat="43.57252" lon="1.18053">
        <ele>203</ele>
        <time>2019-09-26T11:20:00+02:00</time>
      </trkpt>
      <trkpt lat="43.57262" lon="1.18057">
        <ele>203</ele>
        <time>2019-09-26T11:20:07+02:00</time>
      </trkpt>
      <trkpt lat="43.57271" lon="1.18064">
        <ele>202</ele>
        <time>2019-09-26T11:20:13+02:00</time>
      </trkpt>
      <trkpt lat="43.57279" lon="1.1807">
        <ele>202</ele>
        <time>2019-09-26T11:20:17+02:00</time>
      </trkpt>
      <trkpt lat="43.57287" lon="1.18077">
        <ele>202</ele>
        <time>2019-09-26T11:20:22+02:00</time>
      </trkpt>
      <trkpt lat="43.57295" lon="1.18085">
        <ele>203</ele>
        <time>2019-09-26T11:20:28+02:00</time>
      </trkpt>
      <trkpt lat="43.57304" lon="1.18092">
        <ele>203</ele>
        <time>2019-09-26T11:20:33+02:00</time>
      </trkpt>
      <trkpt lat="43.57311" lon="1.181">
        <ele>202</ele>
        <time>2019-09-26T11:20:39+02:00</time>
      </trkpt>
      <trkpt lat="43.57319" lon="1.18107">
        <ele>202</ele>
        <time>2019-09-26T11:20:43+02:00</time>
      </trkpt>
      <trkpt lat="43.57328" lon="1.18114">
        <ele>202</ele>
        <time>2019-09-26T11:20:49+02:00</time>
      </trkpt>
      <trkpt lat="43.57337" lon="1.18117">
        <ele>201</ele>
        <time>2019-09-26T11:20:54+02:00</time>
      </trkpt>
      <trkpt lat="43.57344" lon="1.18127">
        <ele>201</ele>
        <time>2019-09-26T11:20:59+02:00</time>
      </trkpt>
      <trkpt lat="43.57352" lon="1.18134">
        <ele>202</ele>
        <time>2019-09-26T11:21:04+02:00</time>
      </trkpt>
      <trkpt lat="43.5736" lon="1.18143">
        <ele>202</ele>
        <time>2019-09-26T11:21:10+02:00</time>
      </trkpt>
      <trkpt lat="43.57369" lon="1.18148">
        <ele>201</ele>
        <time>2019-09-26T11:21:16+02:00</time>
      </trkpt>
      <trkpt lat="43.57379" lon="1.18156">
        <ele>202</ele>
        <time>2019-09-26T11:21:21+02:00</time>
      </trkpt>
      <trkpt lat="43.57387" lon="1.18166">
        <ele>201</ele>
        <time>2019-09-26T11:21:29+02:00</time>
      </trkpt>
      <trkpt lat="43.57396" lon="1.18173">
        <ele>203</ele>
        <time>2019-09-26T11:21:34+02:00</time>
      </trkpt>
      <trkpt lat="43.57405" lon="1.18181">
        <ele>203</ele>
        <time>2019-09-26T11:21:40+02:00</time>
      </trkpt>
      <trkpt lat="43.57413" lon="1.18189">
        <ele>204</ele>
        <time>2019-09-26T11:21:45+02:00</time>
      </trkpt>
      <trkpt lat="43.57424" lon="1.18194">
        <ele>205</ele>
        <time>2019-09-26T11:21:51+02:00</time>
      </trkpt>
      <trkpt lat="43.57434" lon="1.18199">
        <ele>204</ele>
        <time>2019-09-26T11:21:56+02:00</time>
      </trkpt>
      <trkpt lat="43.57444" lon="1.18206">
        <ele>205</ele>
        <time>2019-09-26T11:22:02+02:00</time>
      </trkpt>
      <trkpt lat="43.57452" lon="1.1821">
        <ele>207</ele>
        <time>2019-09-26T11:22:09+02:00</time>
      </trkpt>
      <trkpt lat="43.57462" lon="1.18214">
        <ele>207</ele>
        <time>2019-09-26T11:22:14+02:00</time>
      </trkpt>
      <trkpt lat="43.57472" lon="1.18209">
        <ele>205</ele>
        <time>2019-09-26T11:22:21+02:00</time>
      </trkpt>
      <trkpt lat="43.57476" lon="1.18198">
        <ele>207</ele>
        <time>2019-09-26T11:22:26+02:00</time>
      </trkpt>
      <trkpt lat="43.57481" lon="1.18187">
        <ele>206</ele>
        <time>2019-09-26T11:22:33+02:00</time>
      </trkpt>
      <trkpt lat="43.57486" lon="1.18176">
        <ele>207</ele>
        <time>2019-09-26T11:22:38+02:00</time>
      </trkpt>
      <trkpt lat="43.57491" lon="1.18166">
        <ele>207</ele>
        <time>2019-09-26T11:22:43+02:00</time>
      </trkpt>
      <trkpt lat="43.57496" lon="1.18154">
        <ele>205</ele>
        <time>2019-09-26T11:22:49+02:00</time>
      </trkpt>
      <trkpt lat="43.57503" lon="1.18144">
        <ele>200</ele>
        <time>2019-09-26T11:22:55+02:00</time>
      </trkpt>
      <trkpt lat="43.5751" lon="1.18133">
        <ele>197</ele>
        <time>2019-09-26T11:23:00+02:00</time>
      </trkpt>
      <trkpt lat="43.57517" lon="1.18125">
        <ele>195</ele>
        <time>2019-09-26T11:23:05+02:00</time>
      </trkpt>
      <trkpt lat="43.57523" lon="1.18116">
        <ele>196</ele>
        <time>2019-09-26T11:23:09+02:00</time>
      </trkpt>
      <trkpt lat="43.5753" lon="1.18107">
        <ele>196</ele>
        <time>2019-09-26T11:23:15+02:00</time>
      </trkpt>
      <trkpt lat="43.57536" lon="1.18097">
        <ele>197</ele>
        <time>2019-09-26T11:23:21+02:00</time>
      </trkpt>
      <trkpt lat="43.57542" lon="1.18087">
        <ele>198</ele>
        <time>2019-09-26T11:23:25+02:00</time>
      </trkpt>
      <trkpt lat="43.57549" lon="1.18077">
        <ele>199</ele>
        <time>2019-09-26T11:23:30+02:00</time>
      </trkpt>
      <trkpt lat="43.57556" lon="1.18068">
        <ele>201</ele>
        <time>2019-09-26T11:23:37+02:00</time>
      </trkpt>
      <trkpt lat="43.57562" lon="1.18056">
        <ele>203</ele>
        <time>2019-09-26T11:23:42+02:00</time>
      </trkpt>
      <trkpt lat="43.57558" lon="1.18044">
        <ele>206</ele>
        <time>2019-09-26T11:23:50+02:00</time>
      </trkpt>
      <trkpt lat="43.57548" lon="1.18042">
        <ele>208</ele>
        <time>2019-09-26T11:23:55+02:00</time>
      </trkpt>
      <trkpt lat="43.57538" lon="1.18037">
        <ele>210</ele>
        <time>2019-09-26T11:24:02+02:00</time>
      </trkpt>
      <trkpt lat="43.57528" lon="1.18032">
        <ele>210</ele>
        <time>2019-09-26T11:24:07+02:00</time>
      </trkpt>
      <trkpt lat="43.57519" lon="1.18026">
        <ele>209</ele>
        <time>2019-09-26T11:24:13+02:00</time>
      </trkpt>
      <trkpt lat="43.57518" lon="1.18011">
        <ele>208</ele>
        <time>2019-09-26T11:24:18+02:00</time>
      </trkpt>
      <trkpt lat="43.5752" lon="1.17996">
        <ele>208</ele>
        <time>2019-09-26T11:24:22+02:00</time>
      </trkpt>
      <trkpt lat="43.5752" lon="1.17983">
        <ele>209</ele>
        <time>2019-09-26T11:24:26+02:00</time>
      </trkpt>
      <trkpt lat="43.57522" lon="1.1797">
        <ele>210</ele>
        <time>2019-09-26T11:24:31+02:00</time>
      </trkpt>
      <trkpt lat="43.57525" lon="1.17956">
        <ele>210</ele>
        <time>2019-09-26T11:24:37+02:00</time>
      </trkpt>
      <trkpt lat="43.57527" lon="1.17942">
        <ele>211</ele>
        <time>2019-09-26T11:24:44+02:00</time>
      </trkpt>
      <trkpt lat="43.57532" lon="1.17928">
        <ele>211</ele>
        <time>2019-09-26T11:24:49+02:00</time>
      </trkpt>
      <trkpt lat="43.57533" lon="1.17915">
        <ele>210</ele>
        <time>2019-09-26T11:24:53+02:00</time>
      </trkpt>
      <trkpt lat="43.57537" lon="1.17903">
        <ele>208</ele>
        <time>2019-09-26T11:24:59+02:00</time>
      </trkpt>
      <trkpt lat="43.57539" lon="1.17889">
        <ele>207</ele>
        <time>2019-09-26T11:25:05+02:00</time>
      </trkpt>
      <trkpt lat="43.57543" lon="1.17877">
        <ele>204</ele>
        <time>2019-09-26T11:25:12+02:00</time>
      </trkpt>
      <trkpt lat="43.57548" lon="1.17865">
        <ele>202</ele>
        <time>2019-09-26T11:25:17+02:00</time>
      </trkpt>
      <trkpt lat="43.57554" lon="1.17855">
        <ele>202</ele>
        <time>2019-09-26T11:25:22+02:00</time>
      </trkpt>
      <trkpt lat="43.5756" lon="1.17844">
        <ele>201</ele>
        <time>2019-09-26T11:25:28+02:00</time>
      </trkpt>
      <trkpt lat="43.57568" lon="1.17836">
        <ele>202</ele>
        <time>2019-09-26T11:25:34+02:00</time>
      </trkpt>
      <trkpt lat="43.57565" lon="1.17824">
        <ele>201</ele>
        <time>2019-09-26T11:25:42+02:00</time>
      </trkpt>
      <trkpt lat="43.57556" lon="1.17814">
        <ele>200</ele>
        <time>2019-09-26T11:25:48+02:00</time>
      </trkpt>
      <trkpt lat="43.57549" lon="1.17807">
        <ele>206</ele>
        <time>2019-09-26T11:25:55+02:00</time>
      </trkpt>
      <trkpt lat="43.57541" lon="1.17799">
        <ele>209</ele>
        <time>2019-09-26T11:26:00+02:00</time>
      </trkpt>
      <trkpt lat="43.57535" lon="1.17788">
        <ele>214</ele>
        <time>2019-09-26T11:26:06+02:00</time>
      </trkpt>
      <trkpt lat="43.57527" lon="1.17781">
        <ele>216</ele>
        <time>2019-09-26T11:26:10+02:00</time>
      </trkpt>
      <trkpt lat="43.5752" lon="1.17773">
        <ele>218</ele>
        <time>2019-09-26T11:26:16+02:00</time>
      </trkpt>
      <trkpt lat="43.57514" lon="1.17762">
        <ele>217</ele>
        <time>2019-09-26T11:26:21+02:00</time>
      </trkpt>
      <trkpt lat="43.57508" lon="1.17753">
        <ele>215</ele>
        <time>2019-09-26T11:26:26+02:00</time>
      </trkpt>
      <trkpt lat="43.575" lon="1.17746">
        <ele>213</ele>
        <time>2019-09-26T11:26:31+02:00</time>
      </trkpt>
      <trkpt lat="43.57494" lon="1.17736">
        <ele>209</ele>
        <time>2019-09-26T11:26:36+02:00</time>
      </trkpt>
      <trkpt lat="43.5749" lon="1.17723">
        <ele>207</ele>
        <time>2019-09-26T11:26:43+02:00</time>
      </trkpt>
      <trkpt lat="43.57483" lon="1.17715">
        <ele>206</ele>
        <time>2019-09-26T11:26:49+02:00</time>
      </trkpt>
      <trkpt lat="43.57477" lon="1.17703">
        <ele>205</ele>
        <time>2019-09-26T11:26:54+02:00</time>
      </trkpt>
      <trkpt lat="43.57472" lon="1.1769">
        <ele>203</ele>
        <time>2019-09-26T11:27:00+02:00</time>
      </trkpt>
      <trkpt lat="43.57466" lon="1.1768">
        <ele>202</ele>
        <time>2019-09-26T11:27:06+02:00</time>
      </trkpt>
      <trkpt lat="43.5746" lon="1.17669">
        <ele>201</ele>
        <time>2019-09-26T11:27:11+02:00</time>
      </trkpt>
      <trkpt lat="43.57456" lon="1.17657">
        <ele>202</ele>
        <time>2019-09-26T11:27:16+02:00</time>
      </trkpt>
      <trkpt lat="43.57449" lon="1.17646">
        <ele>205</ele>
        <time>2019-09-26T11:27:22+02:00</time>
      </trkpt>
      <trkpt lat="43.57444" lon="1.17635">
        <ele>206</ele>
        <time>2019-09-26T11:27:28+02:00</time>
      </trkpt>
      <trkpt lat="43.5744" lon="1.17623">
        <ele>209</ele>
        <time>2019-09-26T11:27:33+02:00</time>
      </trkpt>
      <trkpt lat="43.57436" lon="1.17612">
        <ele>212</ele>
        <time>2019-09-26T11:27:38+02:00</time>
      </trkpt>
      <trkpt lat="43.57433" lon="1.17598">
        <ele>211</ele>
        <time>2019-09-26T11:27:44+02:00</time>
      </trkpt>
      <trkpt lat="43.57431" lon="1.17586">
        <ele>210</ele>
        <time>2019-09-26T11:27:49+02:00</time>
      </trkpt>
      <trkpt lat="43.57425" lon="1.17575">
        <ele>210</ele>
        <time>2019-09-26T11:27:56+02:00</time>
      </trkpt>
      <trkpt lat="43.57418" lon="1.17564">
        <ele>210</ele>
        <time>2019-09-26T11:28:01+02:00</time>
      </trkpt>
      <trkpt lat="43.57411" lon="1.17553">
        <ele>210</ele>
        <time>2019-09-26T11:28:08+02:00</time>
      </trkpt>
      <trkpt lat="43.57402" lon="1.17543">
        <ele>208</ele>
        <time>2019-09-26T11:28:13+02:00</time>
      </trkpt>
      <trkpt lat="43.57394" lon="1.17533">
        <ele>207</ele>
        <time>2019-09-26T11:28:19+02:00</time>
      </trkpt>
      <trkpt lat="43.57386" lon="1.17524">
        <ele>206</ele>
        <time>2019-09-26T11:28:24+02:00</time>
      </trkpt>
      <trkpt lat="43.57379" lon="1.17515">
        <ele>208</ele>
        <time>2019-09-26T11:28:31+02:00</time>
      </trkpt>
      <trkpt lat="43.57373" lon="1.17505">
        <ele>209</ele>
        <time>2019-09-26T11:28:36+02:00</time>
      </trkpt>
      <trkpt lat="43.57366" lon="1.17496">
        <ele>209</ele>
        <time>2019-09-26T11:28:44+02:00</time>
      </trkpt>
      <trkpt lat="43.57361" lon="1.17484">
        <ele>208</ele>
        <time>2019-09-26T11:28:51+02:00</time>
      </trkpt>
      <trkpt lat="43.57354" lon="1.17472">
        <ele>208</ele>
        <time>2019-09-26T11:28:57+02:00</time>
      </trkpt>
      <trkpt lat="43.57346" lon="1.17465">
        <ele>209</ele>
        <time>2019-09-26T11:29:01+02:00</time>
      </trkpt>
      <trkpt lat="43.57338" lon="1.17456">
        <ele>209</ele>
        <time>2019-09-26T11:29:07+02:00</time>
      </trkpt>
      <trkpt lat="43.57331" lon="1.17445">
        <ele>209</ele>
        <time>2019-09-26T11:29:14+02:00</time>
      </trkpt>
      <trkpt lat="43.57324" lon="1.17436">
        <ele>207</ele>
        <time>2019-09-26T11:29:18+02:00</time>
      </trkpt>
      <trkpt lat="43.57316" lon="1.17427">
        <ele>205</ele>
        <time>2019-09-26T11:29:24+02:00</time>
      </trkpt>
      <trkpt lat="43.57309" lon="1.17419">
        <ele>204</ele>
        <time>2019-09-26T11:29:28+02:00</time>
      </trkpt>
      <trkpt lat="43.57305" lon="1.17407">
        <ele>206</ele>
        <time>2019-09-26T11:29:32+02:00</time>
      </trkpt>
      <trkpt lat="43.57303" lon="1.17394">
        <ele>211</ele>
        <time>2019-09-26T11:29:39+02:00</time>
      </trkpt>
      <trkpt lat="43.57298" lon="1.17383">
        <ele>214</ele>
        <time>2019-09-26T11:29:44+02:00</time>
      </trkpt>
      <trkpt lat="43.57293" lon="1.1737">
        <ele>216</ele>
        <time>2019-09-26T11:29:51+02:00</time>
      </trkpt>
      <trkpt lat="43.57287" lon="1.1736">
        <ele>217</ele>
        <time>2019-09-26T11:29:57+02:00</time>
      </trkpt>
      <trkpt lat="43.57278" lon="1.17352">
        <ele>216</ele>
        <time>2019-09-26T11:30:03+02:00</time>
      </trkpt>
      <trkpt lat="43.5727" lon="1.17344">
        <ele>216</ele>
        <time>2019-09-26T11:30:09+02:00</time>
      </trkpt>
      <trkpt lat="43.5726" lon="1.17339">
        <ele>215</ele>
        <time>2019-09-26T11:30:15+02:00</time>
      </trkpt>
      <trkpt lat="43.57254" lon="1.1733">
        <ele>213</ele>
        <time>2019-09-26T11:30:21+02:00</time>
      </trkpt>
      <trkpt lat="43.57259" lon="1.17317">
        <ele>212</ele>
        <time>2019-09-26T11:30:26+02:00</time>
      </trkpt>
      <trkpt lat="43.57265" lon="1.17307">
        <ele>212</ele>
        <time>2019-09-26T11:30:32+02:00</time>
      </trkpt>
      <trkpt lat="43.57271" lon="1.17296">
        <ele>213</ele>
        <time>2019-09-26T11:30:37+02:00</time>
      </trkpt>
      <trkpt lat="43.57275" lon="1.17284">
        <ele>215</ele>
        <time>2019-09-26T11:30:44+02:00</time>
      </trkpt>
      <trkpt lat="43.57279" lon="1.17273">
        <ele>216</ele>
        <time>2019-09-26T11:30:49+02:00</time>
      </trkpt>
      <trkpt lat="43.57281" lon="1.17261">
        <ele>216</ele>
        <time>2019-09-26T11:31:06+02:00</time>
      </trkpt>
      <trkpt lat="43.57273" lon="1.17252">
        <ele>215</ele>
        <time>2019-09-26T11:31:11+02:00</time>
      </trkpt>
      <trkpt lat="43.57266" lon="1.17244">
        <ele>216</ele>
        <time>2019-09-26T11:31:17+02:00</time>
      </trkpt>
      <trkpt lat="43.57256" lon="1.1724">
        <ele>215</ele>
        <time>2019-09-26T11:31:22+02:00</time>
      </trkpt>
      <trkpt lat="43.57248" lon="1.17236">
        <ele>214</ele>
        <time>2019-09-26T11:31:28+02:00</time>
      </trkpt>
      <trkpt lat="43.57238" lon="1.17228">
        <ele>214</ele>
        <time>2019-09-26T11:31:33+02:00</time>
      </trkpt>
      <trkpt lat="43.5723" lon="1.17222">
        <ele>213</ele>
        <time>2019-09-26T11:31:39+02:00</time>
      </trkpt>
      <trkpt lat="43.57219" lon="1.17217">
        <ele>213</ele>
        <time>2019-09-26T11:31:44+02:00</time>
      </trkpt>
      <trkpt lat="43.5721" lon="1.17213">
        <ele>214</ele>
        <time>2019-09-26T11:31:50+02:00</time>
      </trkpt>
      <trkpt lat="43.57208" lon="1.17199">
        <ele>215</ele>
        <time>2019-09-26T11:31:58+02:00</time>
      </trkpt>
      <trkpt lat="43.57211" lon="1.17187">
        <ele>216</ele>
        <time>2019-09-26T11:32:05+02:00</time>
      </trkpt>
      <trkpt lat="43.57215" lon="1.17175">
        <ele>215</ele>
        <time>2019-09-26T11:32:10+02:00</time>
      </trkpt>
      <trkpt lat="43.5722" lon="1.17162">
        <ele>216</ele>
        <time>2019-09-26T11:32:15+02:00</time>
      </trkpt>
      <trkpt lat="43.57223" lon="1.17151">
        <ele>217</ele>
        <time>2019-09-26T11:32:19+02:00</time>
      </trkpt>
      <trkpt lat="43.57228" lon="1.17137">
        <ele>219</ele>
        <time>2019-09-26T11:32:25+02:00</time>
      </trkpt>
      <trkpt lat="43.57232" lon="1.17125">
        <ele>219</ele>
        <time>2019-09-26T11:32:30+02:00</time>
      </trkpt>
      <trkpt lat="43.57236" lon="1.17114">
        <ele>219</ele>
        <time>2019-09-26T11:32:35+02:00</time>
      </trkpt>
      <trkpt lat="43.57241" lon="1.17103">
        <ele>219</ele>
        <time>2019-09-26T11:32:40+02:00</time>
      </trkpt>
      <trkpt lat="43.57245" lon="1.1709">
        <ele>220</ele>
        <time>2019-09-26T11:32:46+02:00</time>
      </trkpt>
      <trkpt lat="43.5725" lon="1.17077">
        <ele>221</ele>
        <time>2019-09-26T11:32:53+02:00</time>
      </trkpt>
      <trkpt lat="43.57254" lon="1.17065">
        <ele>222</ele>
        <time>2019-09-26T11:32:58+02:00</time>
      </trkpt>
      <trkpt lat="43.57257" lon="1.17051">
        <ele>223</ele>
        <time>2019-09-26T11:33:05+02:00</time>
      </trkpt>
      <trkpt lat="43.57262" lon="1.17037">
        <ele>223</ele>
        <time>2019-09-26T11:33:11+02:00</time>
      </trkpt>
      <trkpt lat="43.57265" lon="1.17024">
        <ele>222</ele>
        <time>2019-09-26T11:33:16+02:00</time>
      </trkpt>
      <trkpt lat="43.5727" lon="1.17012">
        <ele>224</ele>
        <time>2019-09-26T11:33:22+02:00</time>
      </trkpt>
      <trkpt lat="43.57275" lon="1.16998">
        <ele>225</ele>
        <time>2019-09-26T11:33:26+02:00</time>
      </trkpt>
      <trkpt lat="43.57278" lon="1.16986">
        <ele>227</ele>
        <time>2019-09-26T11:33:32+02:00</time>
      </trkpt>
      <trkpt lat="43.57283" lon="1.16973">
        <ele>227</ele>
        <time>2019-09-26T11:33:40+02:00</time>
      </trkpt>
      <trkpt lat="43.5728" lon="1.1696">
        <ele>228</ele>
        <time>2019-09-26T11:33:45+02:00</time>
      </trkpt>
      <trkpt lat="43.57272" lon="1.16951">
        <ele>228</ele>
        <time>2019-09-26T11:33:51+02:00</time>
      </trkpt>
      <trkpt lat="43.57263" lon="1.16945">
        <ele>227</ele>
        <time>2019-09-26T11:33:56+02:00</time>
      </trkpt>
      <trkpt lat="43.57254" lon="1.1694">
        <ele>228</ele>
        <time>2019-09-26T11:34:02+02:00</time>
      </trkpt>
      <trkpt lat="43.57245" lon="1.16933">
        <ele>228</ele>
        <time>2019-09-26T11:34:07+02:00</time>
      </trkpt>
      <trkpt lat="43.57236" lon="1.16928">
        <ele>228</ele>
        <time>2019-09-26T11:34:12+02:00</time>
      </trkpt>
      <trkpt lat="43.57227" lon="1.16923">
        <ele>227</ele>
        <time>2019-09-26T11:34:16+02:00</time>
      </trkpt>
      <trkpt lat="43.5722" lon="1.16916">
        <ele>227</ele>
        <time>2019-09-26T11:34:23+02:00</time>
      </trkpt>
      <trkpt lat="43.57212" lon="1.16907">
        <ele>227</ele>
        <time>2019-09-26T11:34:30+02:00</time>
      </trkpt>
      <trkpt lat="43.57207" lon="1.16896">
        <ele>229</ele>
        <time>2019-09-26T11:34:35+02:00</time>
      </trkpt>
      <trkpt lat="43.57199" lon="1.16885">
        <ele>230</ele>
        <time>2019-09-26T11:34:44+02:00</time>
      </trkpt>
      <trkpt lat="43.57192" lon="1.16874">
        <ele>231</ele>
        <time>2019-09-26T11:34:49+02:00</time>
      </trkpt>
      <trkpt lat="43.57188" lon="1.1686">
        <ele>230</ele>
        <time>2019-09-26T11:34:56+02:00</time>
      </trkpt>
      <trkpt lat="43.57183" lon="1.16848">
        <ele>229</ele>
        <time>2019-09-26T11:35:01+02:00</time>
      </trkpt>
      <trkpt lat="43.57177" lon="1.16837">
        <ele>230</ele>
        <time>2019-09-26T11:35:06+02:00</time>
      </trkpt>
      <trkpt lat="43.57169" lon="1.16828">
        <ele>232</ele>
        <time>2019-09-26T11:35:12+02:00</time>
      </trkpt>
      <trkpt lat="43.57161" lon="1.1682">
        <ele>231</ele>
        <time>2019-09-26T11:35:17+02:00</time>
      </trkpt>
      <trkpt lat="43.57152" lon="1.16814">
        <ele>229</ele>
        <time>2019-09-26T11:35:22+02:00</time>
      </trkpt>
      <trkpt lat="43.57144" lon="1.16806">
        <ele>228</ele>
        <time>2019-09-26T11:35:27+02:00</time>
      </trkpt>
      <trkpt lat="43.57136" lon="1.168">
        <ele>225</ele>
        <time>2019-09-26T11:35:33+02:00</time>
      </trkpt>
      <trkpt lat="43.57127" lon="1.16794">
        <ele>223</ele>
        <time>2019-09-26T11:35:39+02:00</time>
      </trkpt>
      <trkpt lat="43.57118" lon="1.1679">
        <ele>225</ele>
        <time>2019-09-26T11:35:50+02:00</time>
      </trkpt>
      <trkpt lat="43.57108" lon="1.16791">
        <ele>224</ele>
        <time>2019-09-26T11:35:58+02:00</time>
      </trkpt>
      <trkpt lat="43.57103" lon="1.16804">
        <ele>224</ele>
        <time>2019-09-26T11:36:04+02:00</time>
      </trkpt>
      <trkpt lat="43.57098" lon="1.16816">
        <ele>223</ele>
        <time>2019-09-26T11:36:10+02:00</time>
      </trkpt>
      <trkpt lat="43.57093" lon="1.16828">
        <ele>222</ele>
        <time>2019-09-26T11:36:16+02:00</time>
      </trkpt>
      <trkpt lat="43.5709" lon="1.1684">
        <ele>222</ele>
        <time>2019-09-26T11:36:26+02:00</time>
      </trkpt>
      <trkpt lat="43.57083" lon="1.16854">
        <ele>218</ele>
        <time>2019-09-26T11:36:35+02:00</time>
      </trkpt>
      <trkpt lat="43.57075" lon="1.16863">
        <ele>217</ele>
        <time>2019-09-26T11:36:39+02:00</time>
      </trkpt>
      <trkpt lat="43.57068" lon="1.16873">
        <ele>217</ele>
        <time>2019-09-26T11:36:44+02:00</time>
      </trkpt>
      <trkpt lat="43.57062" lon="1.16882">
        <ele>218</ele>
        <time>2019-09-26T11:36:48+02:00</time>
      </trkpt>
      <trkpt lat="43.57054" lon="1.1689">
        <ele>219</ele>
        <time>2019-09-26T11:36:53+02:00</time>
      </trkpt>
      <trkpt lat="43.57045" lon="1.16894">
        <ele>220</ele>
        <time>2019-09-26T11:37:00+02:00</time>
      </trkpt>
      <trkpt lat="43.57036" lon="1.16897">
        <ele>220</ele>
        <time>2019-09-26T11:37:06+02:00</time>
      </trkpt>
      <trkpt lat="43.57027" lon="1.169">
        <ele>222</ele>
        <time>2019-09-26T11:37:11+02:00</time>
      </trkpt>
      <trkpt lat="43.57018" lon="1.16905">
        <ele>222</ele>
        <time>2019-09-26T11:37:17+02:00</time>
      </trkpt>
      <trkpt lat="43.57007" lon="1.16908">
        <ele>223</ele>
        <time>2019-09-26T11:37:22+02:00</time>
      </trkpt>
      <trkpt lat="43.56998" lon="1.16911">
        <ele>224</ele>
        <time>2019-09-26T11:37:27+02:00</time>
      </trkpt>
      <trkpt lat="43.56988" lon="1.16912">
        <ele>223</ele>
        <time>2019-09-26T11:37:33+02:00</time>
      </trkpt>
      <trkpt lat="43.56979" lon="1.16917">
        <ele>222</ele>
        <time>2019-09-26T11:37:38+02:00</time>
      </trkpt>
      <trkpt lat="43.56969" lon="1.16917">
        <ele>220</ele>
        <time>2019-09-26T11:37:43+02:00</time>
      </trkpt>
      <trkpt lat="43.56959" lon="1.16922">
        <ele>218</ele>
        <time>2019-09-26T11:37:49+02:00</time>
      </trkpt>
      <trkpt lat="43.56949" lon="1.16927">
        <ele>218</ele>
        <time>2019-09-26T11:37:54+02:00</time>
      </trkpt>
      <trkpt lat="43.56938" lon="1.16931">
        <ele>218</ele>
        <time>2019-09-26T11:38:00+02:00</time>
      </trkpt>
      <trkpt lat="43.5693" lon="1.16935">
        <ele>216</ele>
        <time>2019-09-26T11:38:05+02:00</time>
      </trkpt>
      <trkpt lat="43.56924" lon="1.16923">
        <ele>214</ele>
        <time>2019-09-26T11:38:21+02:00</time>
      </trkpt>
      <trkpt lat="43.56927" lon="1.1691">
        <ele>214</ele>
        <time>2019-09-26T11:38:28+02:00</time>
      </trkpt>
      <trkpt lat="43.56928" lon="1.16896">
        <ele>215</ele>
        <time>2019-09-26T11:38:34+02:00</time>
      </trkpt>
      <trkpt lat="43.56932" lon="1.16883">
        <ele>216</ele>
        <time>2019-09-26T11:38:40+02:00</time>
      </trkpt>
      <trkpt lat="43.56934" lon="1.16869">
        <ele>216</ele>
        <time>2019-09-26T11:38:46+02:00</time>
      </trkpt>
      <trkpt lat="43.56937" lon="1.16857">
        <ele>216</ele>
        <time>2019-09-26T11:38:52+02:00</time>
      </trkpt>
      <trkpt lat="43.5694" lon="1.16845">
        <ele>216</ele>
        <time>2019-09-26T11:38:56+02:00</time>
      </trkpt>
      <trkpt lat="43.56935" lon="1.16834">
        <ele>216</ele>
        <time>2019-09-26T11:39:47+02:00</time>
      </trkpt>
      <trkpt lat="43.56938" lon="1.16819">
        <ele>217</ele>
        <time>2019-09-26T11:39:54+02:00</time>
      </trkpt>
      <trkpt lat="43.56942" lon="1.16807">
        <ele>218</ele>
        <time>2019-09-26T11:40:00+02:00</time>
      </trkpt>
      <trkpt lat="43.56947" lon="1.16795">
        <ele>220</ele>
        <time>2019-09-26T11:40:06+02:00</time>
      </trkpt>
      <trkpt lat="43.56951" lon="1.16781">
        <ele>220</ele>
        <time>2019-09-26T11:40:15+02:00</time>
      </trkpt>
      <trkpt lat="43.56954" lon="1.16768">
        <ele>221</ele>
        <time>2019-09-26T11:40:21+02:00</time>
      </trkpt>
      <trkpt lat="43.56956" lon="1.16747">
        <ele>226</ele>
        <time>2019-09-26T11:41:33+02:00</time>
      </trkpt>
      <trkpt lat="43.56964" lon="1.1674">
        <ele>227</ele>
        <time>2019-09-26T11:41:41+02:00</time>
      </trkpt>
      <trkpt lat="43.56968" lon="1.16729">
        <ele>225</ele>
        <time>2019-09-26T11:41:49+02:00</time>
      </trkpt>
      <trkpt lat="43.56969" lon="1.16717">
        <ele>224</ele>
        <time>2019-09-26T11:41:55+02:00</time>
      </trkpt>
      <trkpt lat="43.56974" lon="1.16704">
        <ele>224</ele>
        <time>2019-09-26T11:41:59+02:00</time>
      </trkpt>
      <trkpt lat="43.56979" lon="1.16693">
        <ele>222</ele>
        <time>2019-09-26T11:42:04+02:00</time>
      </trkpt>
      <trkpt lat="43.56987" lon="1.16687">
        <ele>221</ele>
        <time>2019-09-26T11:42:11+02:00</time>
      </trkpt>
      <trkpt lat="43.56997" lon="1.16683">
        <ele>222</ele>
        <time>2019-09-26T11:42:17+02:00</time>
      </trkpt>
      <trkpt lat="43.57005" lon="1.16675">
        <ele>224</ele>
        <time>2019-09-26T11:42:22+02:00</time>
      </trkpt>
      <trkpt lat="43.57014" lon="1.16669">
        <ele>224</ele>
        <time>2019-09-26T11:42:29+02:00</time>
      </trkpt>
      <trkpt lat="43.57023" lon="1.16666">
        <ele>225</ele>
        <time>2019-09-26T11:42:36+02:00</time>
      </trkpt>
      <trkpt lat="43.57032" lon="1.16662">
        <ele>226</ele>
        <time>2019-09-26T11:42:41+02:00</time>
      </trkpt>
      <trkpt lat="43.57041" lon="1.16661">
        <ele>227</ele>
        <time>2019-09-26T11:42:47+02:00</time>
      </trkpt>
      <trkpt lat="43.5705" lon="1.16658">
        <ele>228</ele>
        <time>2019-09-26T11:42:52+02:00</time>
      </trkpt>
      <trkpt lat="43.57056" lon="1.16649">
        <ele>231</ele>
        <time>2019-09-26T11:42:58+02:00</time>
      </trkpt>
      <trkpt lat="43.57063" lon="1.16639">
        <ele>232</ele>
        <time>2019-09-26T11:43:05+02:00</time>
      </trkpt>
      <trkpt lat="43.57069" lon="1.16628">
        <ele>233</ele>
        <time>2019-09-26T11:43:12+02:00</time>
      </trkpt>
      <trkpt lat="43.57073" lon="1.16614">
        <ele>235</ele>
        <time>2019-09-26T11:43:18+02:00</time>
      </trkpt>
      <trkpt lat="43.57075" lon="1.16601">
        <ele>237</ele>
        <time>2019-09-26T11:43:25+02:00</time>
      </trkpt>
      <trkpt lat="43.57077" lon="1.16587">
        <ele>240</ele>
        <time>2019-09-26T11:43:33+02:00</time>
      </trkpt>
      <trkpt lat="43.5708" lon="1.16576">
        <ele>242</ele>
        <time>2019-09-26T11:43:37+02:00</time>
      </trkpt>
      <trkpt lat="43.57085" lon="1.16564">
        <ele>246</ele>
        <time>2019-09-26T11:43:46+02:00</time>
      </trkpt>
      <trkpt lat="43.5709" lon="1.16552">
        <ele>247</ele>
        <time>2019-09-26T11:43:51+02:00</time>
      </trkpt>
      <trkpt lat="43.57094" lon="1.16539">
        <ele>249</ele>
        <time>2019-09-26T11:43:56+02:00</time>
      </trkpt>
      <trkpt lat="43.571" lon="1.16528">
        <ele>251</ele>
        <time>2019-09-26T11:44:02+02:00</time>
      </trkpt>
      <trkpt lat="43.57108" lon="1.1652">
        <ele>251</ele>
        <time>2019-09-26T11:44:10+02:00</time>
      </trkpt>
      <trkpt lat="43.57117" lon="1.16516">
        <ele>250</ele>
        <time>2019-09-26T11:44:16+02:00</time>
      </trkpt>
      <trkpt lat="43.57126" lon="1.16509">
        <ele>250</ele>
        <time>2019-09-26T11:44:22+02:00</time>
      </trkpt>
      <trkpt lat="43.57134" lon="1.16502">
        <ele>250</ele>
        <time>2019-09-26T11:44:29+02:00</time>
      </trkpt>
      <trkpt lat="43.57144" lon="1.16495">
        <ele>249</ele>
        <time>2019-09-26T11:44:36+02:00</time>
      </trkpt>
      <trkpt lat="43.57154" lon="1.16489">
        <ele>250</ele>
        <time>2019-09-26T11:44:42+02:00</time>
      </trkpt>
      <trkpt lat="43.57162" lon="1.16481">
        <ele>250</ele>
        <time>2019-09-26T11:44:49+02:00</time>
      </trkpt>
      <trkpt lat="43.5717" lon="1.16474">
        <ele>250</ele>
        <time>2019-09-26T11:44:55+02:00</time>
      </trkpt>
      <trkpt lat="43.57179" lon="1.16469">
        <ele>250</ele>
        <time>2019-09-26T11:45:01+02:00</time>
      </trkpt>
      <trkpt lat="43.57186" lon="1.16461">
        <ele>251</ele>
        <time>2019-09-26T11:45:07+02:00</time>
      </trkpt>
      <trkpt lat="43.57194" lon="1.16453">
        <ele>252</ele>
        <time>2019-09-26T11:45:14+02:00</time>
      </trkpt>
      <trkpt lat="43.57201" lon="1.16443">
        <ele>253</ele>
        <time>2019-09-26T11:45:21+02:00</time>
      </trkpt>
      <trkpt lat="43.57209" lon="1.16435">
        <ele>253</ele>
        <time>2019-09-26T11:45:26+02:00</time>
      </trkpt>
      <trkpt lat="43.57217" lon="1.16427">
        <ele>253</ele>
        <time>2019-09-26T11:45:33+02:00</time>
      </trkpt>
      <trkpt lat="43.57225" lon="1.1642">
        <ele>252</ele>
        <time>2019-09-26T11:45:39+02:00</time>
      </trkpt>
      <trkpt lat="43.57233" lon="1.16414">
        <ele>252</ele>
        <time>2019-09-26T11:45:44+02:00</time>
      </trkpt>
      <trkpt lat="43.57241" lon="1.16407">
        <ele>251</ele>
        <time>2019-09-26T11:45:50+02:00</time>
      </trkpt>
      <trkpt lat="43.5725" lon="1.16403">
        <ele>250</ele>
        <time>2019-09-26T11:45:57+02:00</time>
      </trkpt>
      <trkpt lat="43.5726" lon="1.16398">
        <ele>250</ele>
        <time>2019-09-26T11:46:05+02:00</time>
      </trkpt>
      <trkpt lat="43.57269" lon="1.16392">
        <ele>252</ele>
        <time>2019-09-26T11:46:11+02:00</time>
      </trkpt>
      <trkpt lat="43.57278" lon="1.16386">
        <ele>255</ele>
        <time>2019-09-26T11:46:20+02:00</time>
      </trkpt>
      <trkpt lat="43.57286" lon="1.1638">
        <ele>257</ele>
        <time>2019-09-26T11:46:28+02:00</time>
      </trkpt>
      <trkpt lat="43.57297" lon="1.16373">
        <ele>259</ele>
        <time>2019-09-26T11:46:34+02:00</time>
      </trkpt>
      <trkpt lat="43.57306" lon="1.16366">
        <ele>261</ele>
        <time>2019-09-26T11:46:39+02:00</time>
      </trkpt>
      <trkpt lat="43.57314" lon="1.1636">
        <ele>263</ele>
        <time>2019-09-26T11:46:47+02:00</time>
      </trkpt>
      <trkpt lat="43.57318" lon="1.16348">
        <ele>264</ele>
        <time>2019-09-26T11:46:54+02:00</time>
      </trkpt>
      <trkpt lat="43.57322" lon="1.16336">
        <ele>268</ele>
        <time>2019-09-26T11:47:03+02:00</time>
      </trkpt>
      <trkpt lat="43.5733" lon="1.16328">
        <ele>270</ele>
        <time>2019-09-26T11:47:10+02:00</time>
      </trkpt>
      <trkpt lat="43.57338" lon="1.16322">
        <ele>273</ele>
        <time>2019-09-26T11:47:16+02:00</time>
      </trkpt>
      <trkpt lat="43.57346" lon="1.16316">
        <ele>275</ele>
        <time>2019-09-26T11:47:23+02:00</time>
      </trkpt>
      <trkpt lat="43.57353" lon="1.16306">
        <ele>276</ele>
        <time>2019-09-26T11:47:29+02:00</time>
      </trkpt>
      <trkpt lat="43.57358" lon="1.16296">
        <ele>278</ele>
        <time>2019-09-26T11:47:35+02:00</time>
      </trkpt>
      <trkpt lat="43.57363" lon="1.16285">
        <ele>279</ele>
        <time>2019-09-26T11:47:41+02:00</time>
      </trkpt>
      <trkpt lat="43.57369" lon="1.16274">
        <ele>281</ele>
        <time>2019-09-26T11:47:59+02:00</time>
      </trkpt>
      <trkpt lat="43.57378" lon="1.16267">
        <ele>282</ele>
        <time>2019-09-26T11:48:06+02:00</time>
      </trkpt>
      <trkpt lat="43.57385" lon="1.16258">
        <ele>283</ele>
        <time>2019-09-26T11:48:12+02:00</time>
      </trkpt>
      <trkpt lat="43.57391" lon="1.16246">
        <ele>283</ele>
        <time>2019-09-26T11:48:18+02:00</time>
      </trkpt>
      <trkpt lat="43.57397" lon="1.16236">
        <ele>282</ele>
        <time>2019-09-26T11:48:29+02:00</time>
      </trkpt>
      <trkpt lat="43.57403" lon="1.16225">
        <ele>282</ele>
        <time>2019-09-26T11:48:35+02:00</time>
      </trkpt>
      <trkpt lat="43.5741" lon="1.16216">
        <ele>282</ele>
        <time>2019-09-26T11:48:41+02:00</time>
      </trkpt>
      <trkpt lat="43.57417" lon="1.16206">
        <ele>282</ele>
        <time>2019-09-26T11:48:47+02:00</time>
      </trkpt>
      <trkpt lat="43.57423" lon="1.16195">
        <ele>282</ele>
        <time>2019-09-26T11:48:52+02:00</time>
      </trkpt>
      <trkpt lat="43.57426" lon="1.16183">
        <ele>281</ele>
        <time>2019-09-26T11:48:59+02:00</time>
      </trkpt>
      <trkpt lat="43.57431" lon="1.16171">
        <ele>280</ele>
        <time>2019-09-26T11:49:05+02:00</time>
      </trkpt>
      <trkpt lat="43.57436" lon="1.16158">
        <ele>279</ele>
        <time>2019-09-26T11:49:12+02:00</time>
      </trkpt>
      <trkpt lat="43.57442" lon="1.16147">
        <ele>279</ele>
        <time>2019-09-26T11:49:18+02:00</time>
      </trkpt>
      <trkpt lat="43.57448" lon="1.16134">
        <ele>279</ele>
        <time>2019-09-26T11:49:24+02:00</time>
      </trkpt>
      <trkpt lat="43.57449" lon="1.16122">
        <ele>281</ele>
        <time>2019-09-26T11:49:32+02:00</time>
      </trkpt>
      <trkpt lat="43.57454" lon="1.16109">
        <ele>281</ele>
        <time>2019-09-26T11:49:38+02:00</time>
      </trkpt>
      <trkpt lat="43.57461" lon="1.16098">
        <ele>281</ele>
        <time>2019-09-26T11:49:44+02:00</time>
      </trkpt>
      <trkpt lat="43.57465" lon="1.16086">
        <ele>282</ele>
        <time>2019-09-26T11:49:49+02:00</time>
      </trkpt>
      <trkpt lat="43.57471" lon="1.16075">
        <ele>283</ele>
        <time>2019-09-26T11:49:54+02:00</time>
      </trkpt>
      <trkpt lat="43.57477" lon="1.16064">
        <ele>284</ele>
        <time>2019-09-26T11:50:01+02:00</time>
      </trkpt>
      <trkpt lat="43.57483" lon="1.16053">
        <ele>286</ele>
        <time>2019-09-26T11:50:07+02:00</time>
      </trkpt>
      <trkpt lat="43.57486" lon="1.16038">
        <ele>286</ele>
        <time>2019-09-26T11:50:13+02:00</time>
      </trkpt>
      <trkpt lat="43.5749" lon="1.16026">
        <ele>285</ele>
        <time>2019-09-26T11:50:19+02:00</time>
      </trkpt>
      <trkpt lat="43.57494" lon="1.16012">
        <ele>284</ele>
        <time>2019-09-26T11:50:25+02:00</time>
      </trkpt>
      <trkpt lat="43.57498" lon="1.15999">
        <ele>286</ele>
        <time>2019-09-26T11:50:31+02:00</time>
      </trkpt>
      <trkpt lat="43.57502" lon="1.15984">
        <ele>285</ele>
        <time>2019-09-26T11:50:36+02:00</time>
      </trkpt>
      <trkpt lat="43.57507" lon="1.15971">
        <ele>284</ele>
        <time>2019-09-26T11:50:40+02:00</time>
      </trkpt>
      <trkpt lat="43.57511" lon="1.1596">
        <ele>284</ele>
        <time>2019-09-26T11:50:44+02:00</time>
      </trkpt>
      <trkpt lat="43.57515" lon="1.15947">
        <ele>284</ele>
        <time>2019-09-26T11:50:48+02:00</time>
      </trkpt>
      <trkpt lat="43.5752" lon="1.15935">
        <ele>285</ele>
        <time>2019-09-26T11:50:52+02:00</time>
      </trkpt>
      <trkpt lat="43.57524" lon="1.15923">
        <ele>286</ele>
        <time>2019-09-26T11:50:56+02:00</time>
      </trkpt>
      <trkpt lat="43.57527" lon="1.15912">
        <ele>286</ele>
        <time>2019-09-26T11:51:01+02:00</time>
      </trkpt>
      <trkpt lat="43.57532" lon="1.15901">
        <ele>286</ele>
        <time>2019-09-26T11:51:05+02:00</time>
      </trkpt>
      <trkpt lat="43.57535" lon="1.15888">
        <ele>286</ele>
        <time>2019-09-26T11:51:09+02:00</time>
      </trkpt>
      <trkpt lat="43.5754" lon="1.15877">
        <ele>286</ele>
        <time>2019-09-26T11:51:13+02:00</time>
      </trkpt>
      <trkpt lat="43.57544" lon="1.15863">
        <ele>284</ele>
        <time>2019-09-26T11:51:18+02:00</time>
      </trkpt>
      <trkpt lat="43.57549" lon="1.1585">
        <ele>284</ele>
        <time>2019-09-26T11:51:24+02:00</time>
      </trkpt>
      <trkpt lat="43.57556" lon="1.1584">
        <ele>285</ele>
        <time>2019-09-26T11:51:30+02:00</time>
      </trkpt>
      <trkpt lat="43.57563" lon="1.1583">
        <ele>284</ele>
        <time>2019-09-26T11:51:34+02:00</time>
      </trkpt>
      <trkpt lat="43.57571" lon="1.1582">
        <ele>284</ele>
        <time>2019-09-26T11:51:40+02:00</time>
      </trkpt>
      <trkpt lat="43.57578" lon="1.15812">
        <ele>284</ele>
        <time>2019-09-26T11:51:45+02:00</time>
      </trkpt>
      <trkpt lat="43.57583" lon="1.15801">
        <ele>283</ele>
        <time>2019-09-26T11:51:50+02:00</time>
      </trkpt>
      <trkpt lat="43.57591" lon="1.15791">
        <ele>283</ele>
        <time>2019-09-26T11:51:57+02:00</time>
      </trkpt>
      <trkpt lat="43.57599" lon="1.15782">
        <ele>285</ele>
        <time>2019-09-26T11:52:02+02:00</time>
      </trkpt>
      <trkpt lat="43.57605" lon="1.15772">
        <ele>288</ele>
        <time>2019-09-26T11:52:09+02:00</time>
      </trkpt>
      <trkpt lat="43.57612" lon="1.15763">
        <ele>289</ele>
        <time>2019-09-26T11:52:13+02:00</time>
      </trkpt>
      <trkpt lat="43.57618" lon="1.15752">
        <ele>289</ele>
        <time>2019-09-26T11:52:21+02:00</time>
      </trkpt>
      <trkpt lat="43.57626" lon="1.15743">
        <ele>289</ele>
        <time>2019-09-26T11:52:27+02:00</time>
      </trkpt>
      <trkpt lat="43.57634" lon="1.15733">
        <ele>288</ele>
        <time>2019-09-26T11:52:33+02:00</time>
      </trkpt>
      <trkpt lat="43.57641" lon="1.15725">
        <ele>289</ele>
        <time>2019-09-26T11:52:39+02:00</time>
      </trkpt>
      <trkpt lat="43.57647" lon="1.15716">
        <ele>290</ele>
        <time>2019-09-26T11:52:43+02:00</time>
      </trkpt>
      <trkpt lat="43.57653" lon="1.15706">
        <ele>290</ele>
        <time>2019-09-26T11:52:49+02:00</time>
      </trkpt>
      <trkpt lat="43.57662" lon="1.15697">
        <ele>289</ele>
        <time>2019-09-26T11:52:55+02:00</time>
      </trkpt>
      <trkpt lat="43.57669" lon="1.15687">
        <ele>290</ele>
        <time>2019-09-26T11:53:03+02:00</time>
      </trkpt>
      <trkpt lat="43.57677" lon="1.15677">
        <ele>291</ele>
        <time>2019-09-26T11:53:08+02:00</time>
      </trkpt>
      <trkpt lat="43.57681" lon="1.15666">
        <ele>289</ele>
        <time>2019-09-26T11:53:15+02:00</time>
      </trkpt>
      <trkpt lat="43.57687" lon="1.15655">
        <ele>288</ele>
        <time>2019-09-26T11:53:20+02:00</time>
      </trkpt>
      <trkpt lat="43.57694" lon="1.15646">
        <ele>287</ele>
        <time>2019-09-26T11:53:27+02:00</time>
      </trkpt>
      <trkpt lat="43.57699" lon="1.15636">
        <ele>287</ele>
        <time>2019-09-26T11:53:33+02:00</time>
      </trkpt>
      <trkpt lat="43.57707" lon="1.15627">
        <ele>288</ele>
        <time>2019-09-26T11:53:38+02:00</time>
      </trkpt>
      <trkpt lat="43.57714" lon="1.15616">
        <ele>289</ele>
        <time>2019-09-26T11:53:41+02:00</time>
      </trkpt>
      <trkpt lat="43.57722" lon="1.15609">
        <ele>290</ele>
        <time>2019-09-26T11:53:44+02:00</time>
      </trkpt>
      <trkpt lat="43.57729" lon="1.15599">
        <ele>289</ele>
        <time>2019-09-26T11:53:48+02:00</time>
      </trkpt>
      <trkpt lat="43.57737" lon="1.15589">
        <ele>289</ele>
        <time>2019-09-26T11:53:52+02:00</time>
      </trkpt>
      <trkpt lat="43.57745" lon="1.15577">
        <ele>290</ele>
        <time>2019-09-26T11:53:56+02:00</time>
      </trkpt>
      <trkpt lat="43.57753" lon="1.15568">
        <ele>290</ele>
        <time>2019-09-26T11:54:00+02:00</time>
      </trkpt>
      <trkpt lat="43.57761" lon="1.15558">
        <ele>291</ele>
        <time>2019-09-26T11:54:04+02:00</time>
      </trkpt>
      <trkpt lat="43.57769" lon="1.1555">
        <ele>290</ele>
        <time>2019-09-26T11:54:10+02:00</time>
      </trkpt>
      <trkpt lat="43.57779" lon="1.15543">
        <ele>290</ele>
        <time>2019-09-26T11:54:17+02:00</time>
      </trkpt>
      <trkpt lat="43.57787" lon="1.15533">
        <ele>290</ele>
        <time>2019-09-26T11:54:23+02:00</time>
      </trkpt>
      <trkpt lat="43.57789" lon="1.1552">
        <ele>288</ele>
        <time>2019-09-26T11:54:37+02:00</time>
      </trkpt>
      <trkpt lat="43.57797" lon="1.15513">
        <ele>286</ele>
        <time>2019-09-26T11:54:43+02:00</time>
      </trkpt>
      <trkpt lat="43.57807" lon="1.15508">
        <ele>285</ele>
        <time>2019-09-26T11:54:49+02:00</time>
      </trkpt>
      <trkpt lat="43.57814" lon="1.15498">
        <ele>285</ele>
        <time>2019-09-26T11:54:54+02:00</time>
      </trkpt>
      <trkpt lat="43.57824" lon="1.15492">
        <ele>286</ele>
        <time>2019-09-26T11:54:59+02:00</time>
      </trkpt>
      <trkpt lat="43.57832" lon="1.15483">
        <ele>289</ele>
        <time>2019-09-26T11:55:06+02:00</time>
      </trkpt>
      <trkpt lat="43.57839" lon="1.15473">
        <ele>289</ele>
        <time>2019-09-26T11:55:11+02:00</time>
      </trkpt>
      <trkpt lat="43.57846" lon="1.15464">
        <ele>289</ele>
        <time>2019-09-26T11:55:18+02:00</time>
      </trkpt>
      <trkpt lat="43.57854" lon="1.15454">
        <ele>289</ele>
        <time>2019-09-26T11:55:24+02:00</time>
      </trkpt>
      <trkpt lat="43.57864" lon="1.15447">
        <ele>289</ele>
        <time>2019-09-26T11:55:30+02:00</time>
      </trkpt>
      <trkpt lat="43.57871" lon="1.15437">
        <ele>289</ele>
        <time>2019-09-26T11:55:36+02:00</time>
      </trkpt>
      <trkpt lat="43.57879" lon="1.15429">
        <ele>289</ele>
        <time>2019-09-26T11:55:42+02:00</time>
      </trkpt>
      <trkpt lat="43.57887" lon="1.15421">
        <ele>288</ele>
        <time>2019-09-26T11:55:48+02:00</time>
      </trkpt>
      <trkpt lat="43.57894" lon="1.15412">
        <ele>288</ele>
        <time>2019-09-26T11:55:53+02:00</time>
      </trkpt>
      <trkpt lat="43.57901" lon="1.15401">
        <ele>286</ele>
        <time>2019-09-26T11:56:00+02:00</time>
      </trkpt>
      <trkpt lat="43.57906" lon="1.15391">
        <ele>287</ele>
        <time>2019-09-26T11:56:05+02:00</time>
      </trkpt>
      <trkpt lat="43.57912" lon="1.15381">
        <ele>286</ele>
        <time>2019-09-26T11:56:11+02:00</time>
      </trkpt>
      <trkpt lat="43.57919" lon="1.1537">
        <ele>285</ele>
        <time>2019-09-26T11:56:17+02:00</time>
      </trkpt>
      <trkpt lat="43.57923" lon="1.15358">
        <ele>285</ele>
        <time>2019-09-26T11:56:21+02:00</time>
      </trkpt>
      <trkpt lat="43.57928" lon="1.15346">
        <ele>284</ele>
        <time>2019-09-26T11:56:28+02:00</time>
      </trkpt>
      <trkpt lat="43.57934" lon="1.15336">
        <ele>284</ele>
        <time>2019-09-26T11:56:33+02:00</time>
      </trkpt>
      <trkpt lat="43.57942" lon="1.1533">
        <ele>286</ele>
        <time>2019-09-26T11:56:39+02:00</time>
      </trkpt>
      <trkpt lat="43.57948" lon="1.15319">
        <ele>290</ele>
        <time>2019-09-26T11:56:46+02:00</time>
      </trkpt>
      <trkpt lat="43.57953" lon="1.15307">
        <ele>291</ele>
        <time>2019-09-26T11:56:53+02:00</time>
      </trkpt>
      <trkpt lat="43.57957" lon="1.15296">
        <ele>292</ele>
        <time>2019-09-26T11:56:58+02:00</time>
      </trkpt>
      <trkpt lat="43.57962" lon="1.15283">
        <ele>293</ele>
        <time>2019-09-26T11:57:04+02:00</time>
      </trkpt>
      <trkpt lat="43.57967" lon="1.15271">
        <ele>292</ele>
        <time>2019-09-26T11:57:29+02:00</time>
      </trkpt>
      <trkpt lat="43.57968" lon="1.15258">
        <ele>292</ele>
        <time>2019-09-26T11:57:34+02:00</time>
      </trkpt>
      <trkpt lat="43.57972" lon="1.15247">
        <ele>291</ele>
        <time>2019-09-26T11:57:39+02:00</time>
      </trkpt>
      <trkpt lat="43.57972" lon="1.15232">
        <ele>290</ele>
        <time>2019-09-26T11:57:44+02:00</time>
      </trkpt>
      <trkpt lat="43.5797" lon="1.15219">
        <ele>290</ele>
        <time>2019-09-26T11:57:48+02:00</time>
      </trkpt>
      <trkpt lat="43.57972" lon="1.15207">
        <ele>290</ele>
        <time>2019-09-26T11:57:56+02:00</time>
      </trkpt>
      <trkpt lat="43.57974" lon="1.15195">
        <ele>290</ele>
        <time>2019-09-26T11:58:03+02:00</time>
      </trkpt>
      <trkpt lat="43.57979" lon="1.15182">
        <ele>291</ele>
        <time>2019-09-26T11:58:08+02:00</time>
      </trkpt>
      <trkpt lat="43.57979" lon="1.15169">
        <ele>291</ele>
        <time>2019-09-26T11:58:14+02:00</time>
      </trkpt>
      <trkpt lat="43.57979" lon="1.15155">
        <ele>290</ele>
        <time>2019-09-26T11:58:21+02:00</time>
      </trkpt>
      <trkpt lat="43.57981" lon="1.15142">
        <ele>291</ele>
        <time>2019-09-26T11:58:27+02:00</time>
      </trkpt>
      <trkpt lat="43.57985" lon="1.15131">
        <ele>291</ele>
        <time>2019-09-26T11:58:36+02:00</time>
      </trkpt>
      <trkpt lat="43.57985" lon="1.15118">
        <ele>291</ele>
        <time>2019-09-26T11:58:46+02:00</time>
      </trkpt>
      <trkpt lat="43.57985" lon="1.15105">
        <ele>289</ele>
        <time>2019-09-26T11:58:51+02:00</time>
      </trkpt>
      <trkpt lat="43.57987" lon="1.1509">
        <ele>289</ele>
        <time>2019-09-26T11:58:57+02:00</time>
      </trkpt>
      <trkpt lat="43.57987" lon="1.15077">
        <ele>287</ele>
        <time>2019-09-26T11:59:02+02:00</time>
      </trkpt>
      <trkpt lat="43.57988" lon="1.15064">
        <ele>286</ele>
        <time>2019-09-26T11:59:08+02:00</time>
      </trkpt>
      <trkpt lat="43.57988" lon="1.15051">
        <ele>287</ele>
        <time>2019-09-26T11:59:14+02:00</time>
      </trkpt>
      <trkpt lat="43.57989" lon="1.15038">
        <ele>288</ele>
        <time>2019-09-26T11:59:20+02:00</time>
      </trkpt>
      <trkpt lat="43.5799" lon="1.15025">
        <ele>289</ele>
        <time>2019-09-26T11:59:32+02:00</time>
      </trkpt>
      <trkpt lat="43.57995" lon="1.15013">
        <ele>290</ele>
        <time>2019-09-26T11:59:47+02:00</time>
      </trkpt>
      <trkpt lat="43.57995" lon="1.15">
        <ele>293</ele>
        <time>2019-09-26T11:59:54+02:00</time>
      </trkpt>
      <trkpt lat="43.57997" lon="1.14987">
        <ele>293</ele>
        <time>2019-09-26T12:00:20+02:00</time>
      </trkpt>
      <trkpt lat="43.57996" lon="1.14972">
        <ele>293</ele>
        <time>2019-09-26T12:00:26+02:00</time>
      </trkpt>
      <trkpt lat="43.57996" lon="1.1496">
        <ele>293</ele>
        <time>2019-09-26T12:00:31+02:00</time>
      </trkpt>
      <trkpt lat="43.57999" lon="1.14946">
        <ele>294</ele>
        <time>2019-09-26T12:00:36+02:00</time>
      </trkpt>
      <trkpt lat="43.58" lon="1.14933">
        <ele>296</ele>
        <time>2019-09-26T12:00:42+02:00</time>
      </trkpt>
      <trkpt lat="43.58002" lon="1.14919">
        <ele>297</ele>
        <time>2019-09-26T12:00:46+02:00</time>
      </trkpt>
      <trkpt lat="43.58003" lon="1.14906">
        <ele>300</ele>
        <time>2019-09-26T12:00:52+02:00</time>
      </trkpt>
      <trkpt lat="43.58006" lon="1.14893">
        <ele>303</ele>
        <time>2019-09-26T12:00:58+02:00</time>
      </trkpt>
      <trkpt lat="43.5801" lon="1.1488">
        <ele>307</ele>
        <time>2019-09-26T12:01:05+02:00</time>
      </trkpt>
      <trkpt lat="43.58013" lon="1.14867">
        <ele>308</ele>
        <time>2019-09-26T12:01:12+02:00</time>
      </trkpt>
      <trkpt lat="43.58014" lon="1.14853">
        <ele>308</ele>
        <time>2019-09-26T12:01:17+02:00</time>
      </trkpt>
      <trkpt lat="43.58016" lon="1.14839">
        <ele>307</ele>
        <time>2019-09-26T12:01:22+02:00</time>
      </trkpt>
      <trkpt lat="43.58018" lon="1.14826">
        <ele>308</ele>
        <time>2019-09-26T12:01:30+02:00</time>
      </trkpt>
      <trkpt lat="43.58021" lon="1.14811">
        <ele>307</ele>
        <time>2019-09-26T12:01:34+02:00</time>
      </trkpt>
      <trkpt lat="43.58023" lon="1.14798">
        <ele>305</ele>
        <time>2019-09-26T12:01:38+02:00</time>
      </trkpt>
      <trkpt lat="43.58026" lon="1.14785">
        <ele>304</ele>
        <time>2019-09-26T12:01:42+02:00</time>
      </trkpt>
      <trkpt lat="43.5803" lon="1.14771">
        <ele>303</ele>
        <time>2019-09-26T12:01:46+02:00</time>
      </trkpt>
      <trkpt lat="43.58034" lon="1.14757">
        <ele>303</ele>
        <time>2019-09-26T12:01:50+02:00</time>
      </trkpt>
      <trkpt lat="43.58039" lon="1.14741">
        <ele>303</ele>
        <time>2019-09-26T12:01:54+02:00</time>
      </trkpt>
      <trkpt lat="43.58042" lon="1.14728">
        <ele>301</ele>
        <time>2019-09-26T12:01:58+02:00</time>
      </trkpt>
      <trkpt lat="43.58046" lon="1.14713">
        <ele>300</ele>
        <time>2019-09-26T12:02:02+02:00</time>
      </trkpt>
      <trkpt lat="43.5805" lon="1.14699">
        <ele>301</ele>
        <time>2019-09-26T12:02:06+02:00</time>
      </trkpt>
      <trkpt lat="43.58054" lon="1.14685">
        <ele>302</ele>
        <time>2019-09-26T12:02:10+02:00</time>
      </trkpt>
      <trkpt lat="43.58057" lon="1.14672">
        <ele>301</ele>
        <time>2019-09-26T12:02:14+02:00</time>
      </trkpt>
      <trkpt lat="43.58062" lon="1.14659">
        <ele>302</ele>
        <time>2019-09-26T12:02:18+02:00</time>
      </trkpt>
      <trkpt lat="43.58066" lon="1.14645">
        <ele>302</ele>
        <time>2019-09-26T12:02:22+02:00</time>
      </trkpt>
      <trkpt lat="43.58069" lon="1.1463">
        <ele>300</ele>
        <time>2019-09-26T12:02:27+02:00</time>
      </trkpt>
      <trkpt lat="43.58073" lon="1.14616">
        <ele>300</ele>
        <time>2019-09-26T12:02:32+02:00</time>
      </trkpt>
      <trkpt lat="43.58076" lon="1.14602">
        <ele>303</ele>
        <time>2019-09-26T12:02:38+02:00</time>
      </trkpt>
      <trkpt lat="43.58081" lon="1.14589">
        <ele>305</ele>
        <time>2019-09-26T12:02:44+02:00</time>
      </trkpt>
      <trkpt lat="43.58084" lon="1.14577">
        <ele>308</ele>
        <time>2019-09-26T12:02:49+02:00</time>
      </trkpt>
      <trkpt lat="43.58088" lon="1.14566">
        <ele>310</ele>
        <time>2019-09-26T12:02:54+02:00</time>
      </trkpt>
      <trkpt lat="43.58091" lon="1.14553">
        <ele>311</ele>
        <time>2019-09-26T12:03:00+02:00</time>
      </trkpt>
      <trkpt lat="43.58094" lon="1.14541">
        <ele>310</ele>
        <time>2019-09-26T12:03:05+02:00</time>
      </trkpt>
      <trkpt lat="43.58097" lon="1.14526">
        <ele>308</ele>
        <time>2019-09-26T12:03:12+02:00</time>
      </trkpt>
      <trkpt lat="43.58097" lon="1.14511">
        <ele>308</ele>
        <time>2019-09-26T12:03:17+02:00</time>
      </trkpt>
      <trkpt lat="43.58099" lon="1.14497">
        <ele>308</ele>
        <time>2019-09-26T12:03:23+02:00</time>
      </trkpt>
      <trkpt lat="43.581" lon="1.14483">
        <ele>308</ele>
        <time>2019-09-26T12:03:31+02:00</time>
      </trkpt>
      <trkpt lat="43.58104" lon="1.14471">
        <ele>306</ele>
        <time>2019-09-26T12:03:36+02:00</time>
      </trkpt>
      <trkpt lat="43.58105" lon="1.14457">
        <ele>305</ele>
        <time>2019-09-26T12:03:40+02:00</time>
      </trkpt>
      <trkpt lat="43.58106" lon="1.14445">
        <ele>305</ele>
        <time>2019-09-26T12:03:45+02:00</time>
      </trkpt>
      <trkpt lat="43.58106" lon="1.14432">
        <ele>303</ele>
        <time>2019-09-26T12:03:52+02:00</time>
      </trkpt>
      <trkpt lat="43.58105" lon="1.14417">
        <ele>303</ele>
        <time>2019-09-26T12:03:58+02:00</time>
      </trkpt>
      <trkpt lat="43.58106" lon="1.14402">
        <ele>303</ele>
        <time>2019-09-26T12:04:05+02:00</time>
      </trkpt>
      <trkpt lat="43.58104" lon="1.14389">
        <ele>303</ele>
        <time>2019-09-26T12:04:09+02:00</time>
      </trkpt>
      <trkpt lat="43.58107" lon="1.14376">
        <ele>303</ele>
        <time>2019-09-26T12:04:15+02:00</time>
      </trkpt>
      <trkpt lat="43.58108" lon="1.14363">
        <ele>304</ele>
        <time>2019-09-26T12:04:20+02:00</time>
      </trkpt>
      <trkpt lat="43.58108" lon="1.14349">
        <ele>306</ele>
        <time>2019-09-26T12:04:27+02:00</time>
      </trkpt>
      <trkpt lat="43.58109" lon="1.14336">
        <ele>306</ele>
        <time>2019-09-26T12:04:32+02:00</time>
      </trkpt>
      <trkpt lat="43.5811" lon="1.14324">
        <ele>305</ele>
        <time>2019-09-26T12:04:38+02:00</time>
      </trkpt>
      <trkpt lat="43.58111" lon="1.14311">
        <ele>304</ele>
        <time>2019-09-26T12:04:43+02:00</time>
      </trkpt>
      <trkpt lat="43.58111" lon="1.14298">
        <ele>303</ele>
        <time>2019-09-26T12:04:49+02:00</time>
      </trkpt>
      <trkpt lat="43.58112" lon="1.14283">
        <ele>302</ele>
        <time>2019-09-26T12:04:55+02:00</time>
      </trkpt>
      <trkpt lat="43.58114" lon="1.14268">
        <ele>303</ele>
        <time>2019-09-26T12:05:01+02:00</time>
      </trkpt>
      <trkpt lat="43.58118" lon="1.14256">
        <ele>303</ele>
        <time>2019-09-26T12:05:06+02:00</time>
      </trkpt>
      <trkpt lat="43.5812" lon="1.14243">
        <ele>301</ele>
        <time>2019-09-26T12:05:11+02:00</time>
      </trkpt>
      <trkpt lat="43.58123" lon="1.14229">
        <ele>300</ele>
        <time>2019-09-26T12:05:15+02:00</time>
      </trkpt>
      <trkpt lat="43.58126" lon="1.14214">
        <ele>299</ele>
        <time>2019-09-26T12:05:19+02:00</time>
      </trkpt>
      <trkpt lat="43.58128" lon="1.14199">
        <ele>298</ele>
        <time>2019-09-26T12:05:23+02:00</time>
      </trkpt>
      <trkpt lat="43.58132" lon="1.14184">
        <ele>297</ele>
        <time>2019-09-26T12:05:27+02:00</time>
      </trkpt>
      <trkpt lat="43.58134" lon="1.1417">
        <ele>297</ele>
        <time>2019-09-26T12:05:30+02:00</time>
      </trkpt>
      <trkpt lat="43.58137" lon="1.14158">
        <ele>296</ele>
        <time>2019-09-26T12:05:33+02:00</time>
      </trkpt>
      <trkpt lat="43.5814" lon="1.14144">
        <ele>296</ele>
        <time>2019-09-26T12:05:37+02:00</time>
      </trkpt>
      <trkpt lat="43.58143" lon="1.14129">
        <ele>298</ele>
        <time>2019-09-26T12:05:41+02:00</time>
      </trkpt>
      <trkpt lat="43.58145" lon="1.14115">
        <ele>300</ele>
        <time>2019-09-26T12:05:45+02:00</time>
      </trkpt>
      <trkpt lat="43.58148" lon="1.14102">
        <ele>299</ele>
        <time>2019-09-26T12:05:49+02:00</time>
      </trkpt>
      <trkpt lat="43.58151" lon="1.14088">
        <ele>300</ele>
        <time>2019-09-26T12:05:53+02:00</time>
      </trkpt>
      <trkpt lat="43.58151" lon="1.14074">
        <ele>300</ele>
        <time>2019-09-26T12:05:57+02:00</time>
      </trkpt>
      <trkpt lat="43.58152" lon="1.1406">
        <ele>300</ele>
        <time>2019-09-26T12:06:02+02:00</time>
      </trkpt>
      <trkpt lat="43.58153" lon="1.14046">
        <ele>302</ele>
        <time>2019-09-26T12:06:07+02:00</time>
      </trkpt>
      <trkpt lat="43.58151" lon="1.14032">
        <ele>304</ele>
        <time>2019-09-26T12:06:12+02:00</time>
      </trkpt>
      <trkpt lat="43.58147" lon="1.1402">
        <ele>306</ele>
        <time>2019-09-26T12:06:19+02:00</time>
      </trkpt>
      <trkpt lat="43.58143" lon="1.14006">
        <ele>307</ele>
        <time>2019-09-26T12:06:25+02:00</time>
      </trkpt>
      <trkpt lat="43.58139" lon="1.13994">
        <ele>306</ele>
        <time>2019-09-26T12:06:31+02:00</time>
      </trkpt>
      <trkpt lat="43.58136" lon="1.13981">
        <ele>305</ele>
        <time>2019-09-26T12:06:35+02:00</time>
      </trkpt>
      <trkpt lat="43.5813" lon="1.13969">
        <ele>304</ele>
        <time>2019-09-26T12:06:40+02:00</time>
      </trkpt>
      <trkpt lat="43.58125" lon="1.13958">
        <ele>300</ele>
        <time>2019-09-26T12:06:45+02:00</time>
      </trkpt>
      <trkpt lat="43.58121" lon="1.13947">
        <ele>297</ele>
        <time>2019-09-26T12:06:51+02:00</time>
      </trkpt>
      <trkpt lat="43.58119" lon="1.13934">
        <ele>297</ele>
        <time>2019-09-26T12:06:57+02:00</time>
      </trkpt>
      <trkpt lat="43.58112" lon="1.13924">
        <ele>297</ele>
        <time>2019-09-26T12:07:03+02:00</time>
      </trkpt>
      <trkpt lat="43.58109" lon="1.13912">
        <ele>297</ele>
        <time>2019-09-26T12:07:08+02:00</time>
      </trkpt>
      <trkpt lat="43.58105" lon="1.13899">
        <ele>296</ele>
        <time>2019-09-26T12:07:13+02:00</time>
      </trkpt>
      <trkpt lat="43.581" lon="1.13888">
        <ele>295</ele>
        <time>2019-09-26T12:07:19+02:00</time>
      </trkpt>
      <trkpt lat="43.58096" lon="1.13874">
        <ele>295</ele>
        <time>2019-09-26T12:07:26+02:00</time>
      </trkpt>
      <trkpt lat="43.58091" lon="1.13864">
        <ele>296</ele>
        <time>2019-09-26T12:07:31+02:00</time>
      </trkpt>
      <trkpt lat="43.58086" lon="1.13848">
        <ele>294</ele>
        <time>2019-09-26T12:07:46+02:00</time>
      </trkpt>
      <trkpt lat="43.58083" lon="1.13836">
        <ele>293</ele>
        <time>2019-09-26T12:07:50+02:00</time>
      </trkpt>
      <trkpt lat="43.58082" lon="1.13822">
        <ele>293</ele>
        <time>2019-09-26T12:07:56+02:00</time>
      </trkpt>
      <trkpt lat="43.58082" lon="1.13807">
        <ele>293</ele>
        <time>2019-09-26T12:08:00+02:00</time>
      </trkpt>
      <trkpt lat="43.58083" lon="1.13793">
        <ele>295</ele>
        <time>2019-09-26T12:08:05+02:00</time>
      </trkpt>
      <trkpt lat="43.58083" lon="1.1378">
        <ele>296</ele>
        <time>2019-09-26T12:08:10+02:00</time>
      </trkpt>
      <trkpt lat="43.5808" lon="1.13766">
        <ele>297</ele>
        <time>2019-09-26T12:08:15+02:00</time>
      </trkpt>
      <trkpt lat="43.58081" lon="1.13751">
        <ele>299</ele>
        <time>2019-09-26T12:08:23+02:00</time>
      </trkpt>
      <trkpt lat="43.58081" lon="1.13737">
        <ele>299</ele>
        <time>2019-09-26T12:08:29+02:00</time>
      </trkpt>
      <trkpt lat="43.58081" lon="1.13724">
        <ele>298</ele>
        <time>2019-09-26T12:08:34+02:00</time>
      </trkpt>
      <trkpt lat="43.58081" lon="1.1371">
        <ele>297</ele>
        <time>2019-09-26T12:08:40+02:00</time>
      </trkpt>
      <trkpt lat="43.58082" lon="1.13696">
        <ele>300</ele>
        <time>2019-09-26T12:08:47+02:00</time>
      </trkpt>
      <trkpt lat="43.58083" lon="1.13683">
        <ele>300</ele>
        <time>2019-09-26T12:08:53+02:00</time>
      </trkpt>
      <trkpt lat="43.58083" lon="1.13669">
        <ele>302</ele>
        <time>2019-09-26T12:08:59+02:00</time>
      </trkpt>
      <trkpt lat="43.58082" lon="1.13656">
        <ele>302</ele>
        <time>2019-09-26T12:09:04+02:00</time>
      </trkpt>
      <trkpt lat="43.58082" lon="1.13641">
        <ele>301</ele>
        <time>2019-09-26T12:09:11+02:00</time>
      </trkpt>
      <trkpt lat="43.58083" lon="1.13627">
        <ele>300</ele>
        <time>2019-09-26T12:09:18+02:00</time>
      </trkpt>
      <trkpt lat="43.58082" lon="1.13614">
        <ele>299</ele>
        <time>2019-09-26T12:09:23+02:00</time>
      </trkpt>
      <trkpt lat="43.58083" lon="1.13601">
        <ele>298</ele>
        <time>2019-09-26T12:09:29+02:00</time>
      </trkpt>
      <trkpt lat="43.58083" lon="1.13588">
        <ele>298</ele>
        <time>2019-09-26T12:09:34+02:00</time>
      </trkpt>
      <trkpt lat="43.58082" lon="1.13575">
        <ele>298</ele>
        <time>2019-09-26T12:09:39+02:00</time>
      </trkpt>
      <trkpt lat="43.58074" lon="1.13565">
        <ele>298</ele>
        <time>2019-09-26T12:09:45+02:00</time>
      </trkpt>
      <trkpt lat="43.58067" lon="1.13556">
        <ele>299</ele>
        <time>2019-09-26T12:09:50+02:00</time>
      </trkpt>
      <trkpt lat="43.58058" lon="1.1355">
        <ele>298</ele>
        <time>2019-09-26T12:09:55+02:00</time>
      </trkpt>
      <trkpt lat="43.5805" lon="1.13542">
        <ele>297</ele>
        <time>2019-09-26T12:10:00+02:00</time>
      </trkpt>
      <trkpt lat="43.58041" lon="1.13534">
        <ele>297</ele>
        <time>2019-09-26T12:10:07+02:00</time>
      </trkpt>
      <trkpt lat="43.58032" lon="1.13527">
        <ele>299</ele>
        <time>2019-09-26T12:10:14+02:00</time>
      </trkpt>
      <trkpt lat="43.58025" lon="1.13518">
        <ele>300</ele>
        <time>2019-09-26T12:10:20+02:00</time>
      </trkpt>
      <trkpt lat="43.58017" lon="1.13509">
        <ele>299</ele>
        <time>2019-09-26T12:10:28+02:00</time>
      </trkpt>
      <trkpt lat="43.57992" lon="1.13495">
        <ele>304</ele>
        <time>2019-09-26T12:11:27+02:00</time>
      </trkpt>
      <trkpt lat="43.57985" lon="1.13485">
        <ele>304</ele>
        <time>2019-09-26T12:11:34+02:00</time>
      </trkpt>
      <trkpt lat="43.57977" lon="1.13479">
        <ele>303</ele>
        <time>2019-09-26T12:11:39+02:00</time>
      </trkpt>
      <trkpt lat="43.57968" lon="1.13475">
        <ele>304</ele>
        <time>2019-09-26T12:11:45+02:00</time>
      </trkpt>
      <trkpt lat="43.57958" lon="1.13471">
        <ele>304</ele>
        <time>2019-09-26T12:11:52+02:00</time>
      </trkpt>
      <trkpt lat="43.57954" lon="1.13483">
        <ele>301</ele>
        <time>2019-09-26T12:12:23+02:00</time>
      </trkpt>
      <trkpt lat="43.57951" lon="1.13495">
        <ele>300</ele>
        <time>2019-09-26T12:12:29+02:00</time>
      </trkpt>
      <trkpt lat="43.57948" lon="1.13507">
        <ele>300</ele>
        <time>2019-09-26T12:12:34+02:00</time>
      </trkpt>
      <trkpt lat="43.57944" lon="1.13519">
        <ele>299</ele>
        <time>2019-09-26T12:12:39+02:00</time>
      </trkpt>
      <trkpt lat="43.5794" lon="1.13532">
        <ele>297</ele>
        <time>2019-09-26T12:12:46+02:00</time>
      </trkpt>
      <trkpt lat="43.57935" lon="1.13543">
        <ele>297</ele>
        <time>2019-09-26T12:12:54+02:00</time>
      </trkpt>
      <trkpt lat="43.57933" lon="1.13556">
        <ele>297</ele>
        <time>2019-09-26T12:12:59+02:00</time>
      </trkpt>
      <trkpt lat="43.57929" lon="1.13569">
        <ele>297</ele>
        <time>2019-09-26T12:13:03+02:00</time>
      </trkpt>
      <trkpt lat="43.57927" lon="1.13583">
        <ele>297</ele>
        <time>2019-09-26T12:13:07+02:00</time>
      </trkpt>
      <trkpt lat="43.57922" lon="1.13597">
        <ele>297</ele>
        <time>2019-09-26T12:13:11+02:00</time>
      </trkpt>
      <trkpt lat="43.57917" lon="1.1361">
        <ele>298</ele>
        <time>2019-09-26T12:13:15+02:00</time>
      </trkpt>
      <trkpt lat="43.57912" lon="1.13624">
        <ele>298</ele>
        <time>2019-09-26T12:13:19+02:00</time>
      </trkpt>
      <trkpt lat="43.57907" lon="1.13634">
        <ele>296</ele>
        <time>2019-09-26T12:13:22+02:00</time>
      </trkpt>
      <trkpt lat="43.579" lon="1.13646">
        <ele>296</ele>
        <time>2019-09-26T12:13:26+02:00</time>
      </trkpt>
      <trkpt lat="43.57895" lon="1.13659">
        <ele>295</ele>
        <time>2019-09-26T12:13:30+02:00</time>
      </trkpt>
      <trkpt lat="43.57891" lon="1.13672">
        <ele>295</ele>
        <time>2019-09-26T12:13:34+02:00</time>
      </trkpt>
      <trkpt lat="43.57886" lon="1.13685">
        <ele>295</ele>
        <time>2019-09-26T12:13:38+02:00</time>
      </trkpt>
      <trkpt lat="43.57881" lon="1.13698">
        <ele>294</ele>
        <time>2019-09-26T12:13:42+02:00</time>
      </trkpt>
      <trkpt lat="43.57876" lon="1.13711">
        <ele>293</ele>
        <time>2019-09-26T12:13:46+02:00</time>
      </trkpt>
      <trkpt lat="43.57869" lon="1.13722">
        <ele>295</ele>
        <time>2019-09-26T12:13:52+02:00</time>
      </trkpt>
      <trkpt lat="43.57862" lon="1.13734">
        <ele>295</ele>
        <time>2019-09-26T12:13:58+02:00</time>
      </trkpt>
      <trkpt lat="43.57857" lon="1.13747">
        <ele>294</ele>
        <time>2019-09-26T12:14:04+02:00</time>
      </trkpt>
      <trkpt lat="43.57854" lon="1.1376">
        <ele>295</ele>
        <time>2019-09-26T12:14:09+02:00</time>
      </trkpt>
      <trkpt lat="43.57849" lon="1.13774">
        <ele>297</ele>
        <time>2019-09-26T12:14:16+02:00</time>
      </trkpt>
      <trkpt lat="43.57844" lon="1.13785">
        <ele>297</ele>
        <time>2019-09-26T12:14:20+02:00</time>
      </trkpt>
      <trkpt lat="43.57839" lon="1.13796">
        <ele>299</ele>
        <time>2019-09-26T12:14:26+02:00</time>
      </trkpt>
      <trkpt lat="43.57836" lon="1.1381">
        <ele>300</ele>
        <time>2019-09-26T12:14:33+02:00</time>
      </trkpt>
      <trkpt lat="43.5783" lon="1.13823">
        <ele>299</ele>
        <time>2019-09-26T12:14:39+02:00</time>
      </trkpt>
      <trkpt lat="43.57824" lon="1.13834">
        <ele>298</ele>
        <time>2019-09-26T12:14:45+02:00</time>
      </trkpt>
      <trkpt lat="43.57818" lon="1.13845">
        <ele>298</ele>
        <time>2019-09-26T12:14:52+02:00</time>
      </trkpt>
      <trkpt lat="43.57813" lon="1.13857">
        <ele>298</ele>
        <time>2019-09-26T12:14:58+02:00</time>
      </trkpt>
      <trkpt lat="43.57806" lon="1.13868">
        <ele>298</ele>
        <time>2019-09-26T12:15:03+02:00</time>
      </trkpt>
      <trkpt lat="43.57801" lon="1.13877">
        <ele>299</ele>
        <time>2019-09-26T12:15:08+02:00</time>
      </trkpt>
      <trkpt lat="43.57796" lon="1.13889">
        <ele>300</ele>
        <time>2019-09-26T12:15:14+02:00</time>
      </trkpt>
      <trkpt lat="43.57792" lon="1.13901">
        <ele>301</ele>
        <time>2019-09-26T12:15:19+02:00</time>
      </trkpt>
      <trkpt lat="43.57788" lon="1.13913">
        <ele>300</ele>
        <time>2019-09-26T12:15:25+02:00</time>
      </trkpt>
      <trkpt lat="43.57781" lon="1.13923">
        <ele>300</ele>
        <time>2019-09-26T12:15:29+02:00</time>
      </trkpt>
      <trkpt lat="43.57774" lon="1.13932">
        <ele>301</ele>
        <time>2019-09-26T12:15:35+02:00</time>
      </trkpt>
      <trkpt lat="43.57768" lon="1.13943">
        <ele>300</ele>
        <time>2019-09-26T12:15:40+02:00</time>
      </trkpt>
      <trkpt lat="43.57762" lon="1.13956">
        <ele>300</ele>
        <time>2019-09-26T12:15:46+02:00</time>
      </trkpt>
      <trkpt lat="43.57755" lon="1.13965">
        <ele>302</ele>
        <time>2019-09-26T12:15:52+02:00</time>
      </trkpt>
      <trkpt lat="43.57749" lon="1.13976">
        <ele>302</ele>
        <time>2019-09-26T12:15:59+02:00</time>
      </trkpt>
      <trkpt lat="43.57744" lon="1.13987">
        <ele>300</ele>
        <time>2019-09-26T12:16:06+02:00</time>
      </trkpt>
      <trkpt lat="43.57736" lon="1.13996">
        <ele>299</ele>
        <time>2019-09-26T12:16:10+02:00</time>
      </trkpt>
      <trkpt lat="43.5773" lon="1.14005">
        <ele>296</ele>
        <time>2019-09-26T12:16:16+02:00</time>
      </trkpt>
      <trkpt lat="43.57726" lon="1.14018">
        <ele>294</ele>
        <time>2019-09-26T12:16:20+02:00</time>
      </trkpt>
      <trkpt lat="43.57719" lon="1.14028">
        <ele>291</ele>
        <time>2019-09-26T12:16:26+02:00</time>
      </trkpt>
      <trkpt lat="43.57712" lon="1.14038">
        <ele>289</ele>
        <time>2019-09-26T12:16:31+02:00</time>
      </trkpt>
      <trkpt lat="43.57706" lon="1.14049">
        <ele>286</ele>
        <time>2019-09-26T12:16:37+02:00</time>
      </trkpt>
      <trkpt lat="43.57703" lon="1.14061">
        <ele>283</ele>
        <time>2019-09-26T12:16:43+02:00</time>
      </trkpt>
      <trkpt lat="43.57698" lon="1.14073">
        <ele>282</ele>
        <time>2019-09-26T12:16:49+02:00</time>
      </trkpt>
      <trkpt lat="43.57693" lon="1.14084">
        <ele>281</ele>
        <time>2019-09-26T12:16:54+02:00</time>
      </trkpt>
      <trkpt lat="43.57683" lon="1.14083">
        <ele>280</ele>
        <time>2019-09-26T12:17:19+02:00</time>
      </trkpt>
      <trkpt lat="43.57676" lon="1.14092">
        <ele>279</ele>
        <time>2019-09-26T12:17:25+02:00</time>
      </trkpt>
      <trkpt lat="43.5767" lon="1.14102">
        <ele>277</ele>
        <time>2019-09-26T12:17:31+02:00</time>
      </trkpt>
      <trkpt lat="43.57664" lon="1.14111">
        <ele>277</ele>
        <time>2019-09-26T12:17:36+02:00</time>
      </trkpt>
      <trkpt lat="43.5766" lon="1.14123">
        <ele>275</ele>
        <time>2019-09-26T12:17:55+02:00</time>
      </trkpt>
      <trkpt lat="43.57651" lon="1.1413">
        <ele>276</ele>
        <time>2019-09-26T12:18:01+02:00</time>
      </trkpt>
      <trkpt lat="43.57649" lon="1.14144">
        <ele>276</ele>
        <time>2019-09-26T12:18:05+02:00</time>
      </trkpt>
      <trkpt lat="43.57649" lon="1.14156">
        <ele>276</ele>
        <time>2019-09-26T12:18:10+02:00</time>
      </trkpt>
      <trkpt lat="43.57643" lon="1.14166">
        <ele>275</ele>
        <time>2019-09-26T12:18:15+02:00</time>
      </trkpt>
      <trkpt lat="43.57637" lon="1.14175">
        <ele>275</ele>
        <time>2019-09-26T12:18:20+02:00</time>
      </trkpt>
      <trkpt lat="43.57631" lon="1.14186">
        <ele>275</ele>
        <time>2019-09-26T12:18:25+02:00</time>
      </trkpt>
      <trkpt lat="43.57626" lon="1.14199">
        <ele>274</ele>
        <time>2019-09-26T12:18:30+02:00</time>
      </trkpt>
      <trkpt lat="43.5762" lon="1.14211">
        <ele>273</ele>
        <time>2019-09-26T12:18:35+02:00</time>
      </trkpt>
      <trkpt lat="43.57615" lon="1.14222">
        <ele>273</ele>
        <time>2019-09-26T12:18:39+02:00</time>
      </trkpt>
      <trkpt lat="43.57611" lon="1.14234">
        <ele>273</ele>
        <time>2019-09-26T12:18:45+02:00</time>
      </trkpt>
      <trkpt lat="43.57606" lon="1.14246">
        <ele>271</ele>
        <time>2019-09-26T12:18:50+02:00</time>
      </trkpt>
      <trkpt lat="43.57603" lon="1.14258">
        <ele>269</ele>
        <time>2019-09-26T12:18:55+02:00</time>
      </trkpt>
      <trkpt lat="43.57599" lon="1.1427">
        <ele>266</ele>
        <time>2019-09-26T12:19:02+02:00</time>
      </trkpt>
      <trkpt lat="43.57593" lon="1.14281">
        <ele>262</ele>
        <time>2019-09-26T12:19:08+02:00</time>
      </trkpt>
      <trkpt lat="43.57588" lon="1.14292">
        <ele>260</ele>
        <time>2019-09-26T12:19:13+02:00</time>
      </trkpt>
      <trkpt lat="43.57585" lon="1.14306">
        <ele>258</ele>
        <time>2019-09-26T12:19:19+02:00</time>
      </trkpt>
      <trkpt lat="43.5758" lon="1.14318">
        <ele>257</ele>
        <time>2019-09-26T12:19:24+02:00</time>
      </trkpt>
      <trkpt lat="43.57573" lon="1.1433">
        <ele>256</ele>
        <time>2019-09-26T12:19:30+02:00</time>
      </trkpt>
      <trkpt lat="43.57569" lon="1.14341">
        <ele>255</ele>
        <time>2019-09-26T12:19:36+02:00</time>
      </trkpt>
      <trkpt lat="43.57563" lon="1.14351">
        <ele>254</ele>
        <time>2019-09-26T12:19:42+02:00</time>
      </trkpt>
      <trkpt lat="43.57557" lon="1.14361">
        <ele>255</ele>
        <time>2019-09-26T12:19:47+02:00</time>
      </trkpt>
      <trkpt lat="43.57552" lon="1.14372">
        <ele>255</ele>
        <time>2019-09-26T12:19:52+02:00</time>
      </trkpt>
      <trkpt lat="43.5755" lon="1.14384">
        <ele>257</ele>
        <time>2019-09-26T12:19:57+02:00</time>
      </trkpt>
      <trkpt lat="43.57543" lon="1.14395">
        <ele>257</ele>
        <time>2019-09-26T12:20:02+02:00</time>
      </trkpt>
      <trkpt lat="43.57539" lon="1.14408">
        <ele>260</ele>
        <time>2019-09-26T12:20:07+02:00</time>
      </trkpt>
      <trkpt lat="43.57535" lon="1.1442">
        <ele>260</ele>
        <time>2019-09-26T12:20:11+02:00</time>
      </trkpt>
      <trkpt lat="43.57532" lon="1.14435">
        <ele>257</ele>
        <time>2019-09-26T12:20:16+02:00</time>
      </trkpt>
      <trkpt lat="43.57526" lon="1.14448">
        <ele>254</ele>
        <time>2019-09-26T12:20:20+02:00</time>
      </trkpt>
      <trkpt lat="43.57521" lon="1.14461">
        <ele>250</ele>
        <time>2019-09-26T12:20:24+02:00</time>
      </trkpt>
      <trkpt lat="43.57516" lon="1.14472">
        <ele>247</ele>
        <time>2019-09-26T12:20:28+02:00</time>
      </trkpt>
      <trkpt lat="43.57512" lon="1.14483">
        <ele>245</ele>
        <time>2019-09-26T12:20:32+02:00</time>
      </trkpt>
      <trkpt lat="43.57506" lon="1.14495">
        <ele>242</ele>
        <time>2019-09-26T12:20:36+02:00</time>
      </trkpt>
      <trkpt lat="43.57501" lon="1.14507">
        <ele>237</ele>
        <time>2019-09-26T12:20:42+02:00</time>
      </trkpt>
      <trkpt lat="43.57496" lon="1.14518">
        <ele>234</ele>
        <time>2019-09-26T12:20:47+02:00</time>
      </trkpt>
      <trkpt lat="43.5749" lon="1.14531">
        <ele>233</ele>
        <time>2019-09-26T12:20:52+02:00</time>
      </trkpt>
      <trkpt lat="43.57487" lon="1.14543">
        <ele>230</ele>
        <time>2019-09-26T12:20:58+02:00</time>
      </trkpt>
      <trkpt lat="43.57483" lon="1.14556">
        <ele>228</ele>
        <time>2019-09-26T12:21:05+02:00</time>
      </trkpt>
      <trkpt lat="43.57477" lon="1.1457">
        <ele>227</ele>
        <time>2019-09-26T12:21:10+02:00</time>
      </trkpt>
      <trkpt lat="43.57475" lon="1.14582">
        <ele>227</ele>
        <time>2019-09-26T12:21:14+02:00</time>
      </trkpt>
      <trkpt lat="43.57471" lon="1.14594">
        <ele>228</ele>
        <time>2019-09-26T12:21:19+02:00</time>
      </trkpt>
      <trkpt lat="43.57465" lon="1.14605">
        <ele>229</ele>
        <time>2019-09-26T12:21:25+02:00</time>
      </trkpt>
      <trkpt lat="43.5746" lon="1.14618">
        <ele>228</ele>
        <time>2019-09-26T12:21:32+02:00</time>
      </trkpt>
      <trkpt lat="43.57452" lon="1.14627">
        <ele>228</ele>
        <time>2019-09-26T12:21:38+02:00</time>
      </trkpt>
      <trkpt lat="43.57446" lon="1.14638">
        <ele>228</ele>
        <time>2019-09-26T12:21:43+02:00</time>
      </trkpt>
      <trkpt lat="43.57442" lon="1.1465">
        <ele>228</ele>
        <time>2019-09-26T12:21:49+02:00</time>
      </trkpt>
      <trkpt lat="43.57438" lon="1.14663">
        <ele>229</ele>
        <time>2019-09-26T12:21:55+02:00</time>
      </trkpt>
      <trkpt lat="43.57435" lon="1.14677">
        <ele>230</ele>
        <time>2019-09-26T12:22:00+02:00</time>
      </trkpt>
      <trkpt lat="43.57431" lon="1.14688">
        <ele>233</ele>
        <time>2019-09-26T12:22:05+02:00</time>
      </trkpt>
      <trkpt lat="43.57425" lon="1.147">
        <ele>237</ele>
        <time>2019-09-26T12:22:11+02:00</time>
      </trkpt>
      <trkpt lat="43.57419" lon="1.1471">
        <ele>241</ele>
        <time>2019-09-26T12:22:17+02:00</time>
      </trkpt>
      <trkpt lat="43.57414" lon="1.14724">
        <ele>242</ele>
        <time>2019-09-26T12:22:22+02:00</time>
      </trkpt>
      <trkpt lat="43.57409" lon="1.14736">
        <ele>241</ele>
        <time>2019-09-26T12:22:26+02:00</time>
      </trkpt>
      <trkpt lat="43.57405" lon="1.14748">
        <ele>240</ele>
        <time>2019-09-26T12:22:30+02:00</time>
      </trkpt>
      <trkpt lat="43.574" lon="1.14762">
        <ele>238</ele>
        <time>2019-09-26T12:22:35+02:00</time>
      </trkpt>
      <trkpt lat="43.57396" lon="1.14774">
        <ele>233</ele>
        <time>2019-09-26T12:22:39+02:00</time>
      </trkpt>
      <trkpt lat="43.5739" lon="1.14787">
        <ele>229</ele>
        <time>2019-09-26T12:22:43+02:00</time>
      </trkpt>
      <trkpt lat="43.57386" lon="1.148">
        <ele>227</ele>
        <time>2019-09-26T12:22:47+02:00</time>
      </trkpt>
      <trkpt lat="43.57381" lon="1.1481">
        <ele>225</ele>
        <time>2019-09-26T12:22:52+02:00</time>
      </trkpt>
      <trkpt lat="43.57374" lon="1.14821">
        <ele>225</ele>
        <time>2019-09-26T12:22:57+02:00</time>
      </trkpt>
      <trkpt lat="43.57368" lon="1.14831">
        <ele>224</ele>
        <time>2019-09-26T12:23:03+02:00</time>
      </trkpt>
      <trkpt lat="43.57365" lon="1.14845">
        <ele>224</ele>
        <time>2019-09-26T12:23:08+02:00</time>
      </trkpt>
      <trkpt lat="43.57361" lon="1.14857">
        <ele>224</ele>
        <time>2019-09-26T12:23:13+02:00</time>
      </trkpt>
      <trkpt lat="43.57355" lon="1.1487">
        <ele>226</ele>
        <time>2019-09-26T12:23:19+02:00</time>
      </trkpt>
      <trkpt lat="43.5735" lon="1.14882">
        <ele>231</ele>
        <time>2019-09-26T12:23:24+02:00</time>
      </trkpt>
      <trkpt lat="43.57343" lon="1.1489">
        <ele>232</ele>
        <time>2019-09-26T12:23:28+02:00</time>
      </trkpt>
      <trkpt lat="43.57337" lon="1.14901">
        <ele>235</ele>
        <time>2019-09-26T12:23:33+02:00</time>
      </trkpt>
      <trkpt lat="43.57331" lon="1.14911">
        <ele>237</ele>
        <time>2019-09-26T12:23:38+02:00</time>
      </trkpt>
      <trkpt lat="43.57325" lon="1.14922">
        <ele>239</ele>
        <time>2019-09-26T12:23:45+02:00</time>
      </trkpt>
      <trkpt lat="43.57323" lon="1.14935">
        <ele>241</ele>
        <time>2019-09-26T12:23:50+02:00</time>
      </trkpt>
      <trkpt lat="43.57318" lon="1.14949">
        <ele>243</ele>
        <time>2019-09-26T12:23:56+02:00</time>
      </trkpt>
      <trkpt lat="43.57313" lon="1.14961">
        <ele>245</ele>
        <time>2019-09-26T12:24:00+02:00</time>
      </trkpt>
      <trkpt lat="43.57308" lon="1.14973">
        <ele>246</ele>
        <time>2019-09-26T12:24:07+02:00</time>
      </trkpt>
      <trkpt lat="43.57301" lon="1.14982">
        <ele>246</ele>
        <time>2019-09-26T12:24:11+02:00</time>
      </trkpt>
      <trkpt lat="43.57297" lon="1.14996">
        <ele>246</ele>
        <time>2019-09-26T12:24:18+02:00</time>
      </trkpt>
      <trkpt lat="43.57292" lon="1.15006">
        <ele>245</ele>
        <time>2019-09-26T12:24:24+02:00</time>
      </trkpt>
      <trkpt lat="43.57289" lon="1.15021">
        <ele>242</ele>
        <time>2019-09-26T12:24:30+02:00</time>
      </trkpt>
      <trkpt lat="43.57286" lon="1.15032">
        <ele>239</ele>
        <time>2019-09-26T12:24:35+02:00</time>
      </trkpt>
      <trkpt lat="43.57278" lon="1.15039">
        <ele>236</ele>
        <time>2019-09-26T12:24:41+02:00</time>
      </trkpt>
      <trkpt lat="43.57267" lon="1.15037">
        <ele>234</ele>
        <time>2019-09-26T12:24:47+02:00</time>
      </trkpt>
      <trkpt lat="43.57256" lon="1.1504">
        <ele>234</ele>
        <time>2019-09-26T12:24:54+02:00</time>
      </trkpt>
      <trkpt lat="43.57254" lon="1.15052">
        <ele>236</ele>
        <time>2019-09-26T12:25:13+02:00</time>
      </trkpt>
      <trkpt lat="43.57254" lon="1.15067">
        <ele>233</ele>
        <time>2019-09-26T12:25:22+02:00</time>
      </trkpt>
      <trkpt lat="43.5725" lon="1.15079">
        <ele>233</ele>
        <time>2019-09-26T12:25:30+02:00</time>
      </trkpt>
      <trkpt lat="43.57248" lon="1.15091">
        <ele>235</ele>
        <time>2019-09-26T12:25:56+02:00</time>
      </trkpt>
      <trkpt lat="43.57248" lon="1.15104">
        <ele>235</ele>
        <time>2019-09-26T12:26:03+02:00</time>
      </trkpt>
      <trkpt lat="43.57245" lon="1.15118">
        <ele>234</ele>
        <time>2019-09-26T12:26:09+02:00</time>
      </trkpt>
      <trkpt lat="43.5724" lon="1.15131">
        <ele>234</ele>
        <time>2019-09-26T12:26:15+02:00</time>
      </trkpt>
      <trkpt lat="43.5723" lon="1.15135">
        <ele>233</ele>
        <time>2019-09-26T12:26:20+02:00</time>
      </trkpt>
      <trkpt lat="43.5722" lon="1.15131">
        <ele>230</ele>
        <time>2019-09-26T12:26:28+02:00</time>
      </trkpt>
      <trkpt lat="43.57209" lon="1.15131">
        <ele>229</ele>
        <time>2019-09-26T12:26:33+02:00</time>
      </trkpt>
      <trkpt lat="43.572" lon="1.1513">
        <ele>228</ele>
        <time>2019-09-26T12:26:38+02:00</time>
      </trkpt>
      <trkpt lat="43.57191" lon="1.15129">
        <ele>228</ele>
        <time>2019-09-26T12:26:43+02:00</time>
      </trkpt>
      <trkpt lat="43.57181" lon="1.15124">
        <ele>226</ele>
        <time>2019-09-26T12:26:50+02:00</time>
      </trkpt>
      <trkpt lat="43.57173" lon="1.15131">
        <ele>225</ele>
        <time>2019-09-26T12:26:55+02:00</time>
      </trkpt>
      <trkpt lat="43.57171" lon="1.15145">
        <ele>224</ele>
        <time>2019-09-26T12:27:02+02:00</time>
      </trkpt>
      <trkpt lat="43.57171" lon="1.15158">
        <ele>224</ele>
        <time>2019-09-26T12:27:07+02:00</time>
      </trkpt>
      <trkpt lat="43.57167" lon="1.15171">
        <ele>225</ele>
        <time>2019-09-26T12:27:13+02:00</time>
      </trkpt>
      <trkpt lat="43.57166" lon="1.15184">
        <ele>226</ele>
        <time>2019-09-26T12:27:19+02:00</time>
      </trkpt>
      <trkpt lat="43.57163" lon="1.15197">
        <ele>228</ele>
        <time>2019-09-26T12:27:25+02:00</time>
      </trkpt>
      <trkpt lat="43.57157" lon="1.15208">
        <ele>229</ele>
        <time>2019-09-26T12:27:31+02:00</time>
      </trkpt>
      <trkpt lat="43.57148" lon="1.15215">
        <ele>228</ele>
        <time>2019-09-26T12:27:36+02:00</time>
      </trkpt>
      <trkpt lat="43.57139" lon="1.15219">
        <ele>228</ele>
        <time>2019-09-26T12:27:40+02:00</time>
      </trkpt>
      <trkpt lat="43.57129" lon="1.15225">
        <ele>228</ele>
        <time>2019-09-26T12:27:44+02:00</time>
      </trkpt>
      <trkpt lat="43.57119" lon="1.1523">
        <ele>228</ele>
        <time>2019-09-26T12:27:48+02:00</time>
      </trkpt>
      <trkpt lat="43.57109" lon="1.15238">
        <ele>227</ele>
        <time>2019-09-26T12:27:52+02:00</time>
      </trkpt>
      <trkpt lat="43.57101" lon="1.15244">
        <ele>228</ele>
        <time>2019-09-26T12:27:55+02:00</time>
      </trkpt>
      <trkpt lat="43.57092" lon="1.15252">
        <ele>226</ele>
        <time>2019-09-26T12:27:59+02:00</time>
      </trkpt>
      <trkpt lat="43.57084" lon="1.15262">
        <ele>228</ele>
        <time>2019-09-26T12:28:03+02:00</time>
      </trkpt>
      <trkpt lat="43.57078" lon="1.15272">
        <ele>227</ele>
        <time>2019-09-26T12:28:07+02:00</time>
      </trkpt>
      <trkpt lat="43.57071" lon="1.15283">
        <ele>227</ele>
        <time>2019-09-26T12:28:11+02:00</time>
      </trkpt>
      <trkpt lat="43.57062" lon="1.15289">
        <ele>226</ele>
        <time>2019-09-26T12:28:14+02:00</time>
      </trkpt>
      <trkpt lat="43.57056" lon="1.15301">
        <ele>225</ele>
        <time>2019-09-26T12:28:20+02:00</time>
      </trkpt>
      <trkpt lat="43.57051" lon="1.15314">
        <ele>224</ele>
        <time>2019-09-26T12:28:26+02:00</time>
      </trkpt>
      <trkpt lat="43.57046" lon="1.15327">
        <ele>224</ele>
        <time>2019-09-26T12:28:32+02:00</time>
      </trkpt>
      <trkpt lat="43.57044" lon="1.15339">
        <ele>225</ele>
        <time>2019-09-26T12:28:36+02:00</time>
      </trkpt>
      <trkpt lat="43.57038" lon="1.15349">
        <ele>225</ele>
        <time>2019-09-26T12:28:42+02:00</time>
      </trkpt>
      <trkpt lat="43.57029" lon="1.15355">
        <ele>226</ele>
        <time>2019-09-26T12:28:46+02:00</time>
      </trkpt>
      <trkpt lat="43.5702" lon="1.1536">
        <ele>228</ele>
        <time>2019-09-26T12:28:51+02:00</time>
      </trkpt>
      <trkpt lat="43.57016" lon="1.15373">
        <ele>229</ele>
        <time>2019-09-26T12:28:59+02:00</time>
      </trkpt>
      <trkpt lat="43.57012" lon="1.15384">
        <ele>230</ele>
        <time>2019-09-26T12:29:04+02:00</time>
      </trkpt>
      <trkpt lat="43.57007" lon="1.15397">
        <ele>228</ele>
        <time>2019-09-26T12:29:12+02:00</time>
      </trkpt>
      <trkpt lat="43.57003" lon="1.15408">
        <ele>228</ele>
        <time>2019-09-26T12:29:16+02:00</time>
      </trkpt>
      <trkpt lat="43.56997" lon="1.15418">
        <ele>229</ele>
        <time>2019-09-26T12:29:21+02:00</time>
      </trkpt>
      <trkpt lat="43.5699" lon="1.15425">
        <ele>229</ele>
        <time>2019-09-26T12:29:27+02:00</time>
      </trkpt>
      <trkpt lat="43.56984" lon="1.15436">
        <ele>229</ele>
        <time>2019-09-26T12:29:35+02:00</time>
      </trkpt>
      <trkpt lat="43.56979" lon="1.15448">
        <ele>229</ele>
        <time>2019-09-26T12:29:43+02:00</time>
      </trkpt>
      <trkpt lat="43.56974" lon="1.15461">
        <ele>228</ele>
        <time>2019-09-26T12:29:51+02:00</time>
      </trkpt>
      <trkpt lat="43.56969" lon="1.15471">
        <ele>226</ele>
        <time>2019-09-26T12:29:56+02:00</time>
      </trkpt>
      <trkpt lat="43.56961" lon="1.1548">
        <ele>224</ele>
        <time>2019-09-26T12:30:01+02:00</time>
      </trkpt>
      <trkpt lat="43.56952" lon="1.15487">
        <ele>222</ele>
        <time>2019-09-26T12:30:08+02:00</time>
      </trkpt>
      <trkpt lat="43.56943" lon="1.15489">
        <ele>221</ele>
        <time>2019-09-26T12:30:14+02:00</time>
      </trkpt>
      <trkpt lat="43.56934" lon="1.15487">
        <ele>221</ele>
        <time>2019-09-26T12:30:20+02:00</time>
      </trkpt>
      <trkpt lat="43.56923" lon="1.15487">
        <ele>220</ele>
        <time>2019-09-26T12:30:26+02:00</time>
      </trkpt>
      <trkpt lat="43.56914" lon="1.15492">
        <ele>221</ele>
        <time>2019-09-26T12:30:33+02:00</time>
      </trkpt>
      <trkpt lat="43.56907" lon="1.15502">
        <ele>221</ele>
        <time>2019-09-26T12:30:40+02:00</time>
      </trkpt>
      <trkpt lat="43.56903" lon="1.15516">
        <ele>221</ele>
        <time>2019-09-26T12:30:48+02:00</time>
      </trkpt>
      <trkpt lat="43.56899" lon="1.15528">
        <ele>222</ele>
        <time>2019-09-26T12:30:53+02:00</time>
      </trkpt>
      <trkpt lat="43.56896" lon="1.15541">
        <ele>223</ele>
        <time>2019-09-26T12:30:57+02:00</time>
      </trkpt>
      <trkpt lat="43.5689" lon="1.1555">
        <ele>223</ele>
        <time>2019-09-26T12:31:03+02:00</time>
      </trkpt>
      <trkpt lat="43.56885" lon="1.15562">
        <ele>222</ele>
        <time>2019-09-26T12:31:09+02:00</time>
      </trkpt>
      <trkpt lat="43.5688" lon="1.15573">
        <ele>221</ele>
        <time>2019-09-26T12:31:13+02:00</time>
      </trkpt>
      <trkpt lat="43.56876" lon="1.15586">
        <ele>221</ele>
        <time>2019-09-26T12:31:20+02:00</time>
      </trkpt>
      <trkpt lat="43.56871" lon="1.15596">
        <ele>221</ele>
        <time>2019-09-26T12:31:25+02:00</time>
      </trkpt>
      <trkpt lat="43.56865" lon="1.15607">
        <ele>221</ele>
        <time>2019-09-26T12:31:30+02:00</time>
      </trkpt>
      <trkpt lat="43.56863" lon="1.1562">
        <ele>221</ele>
        <time>2019-09-26T12:31:37+02:00</time>
      </trkpt>
      <trkpt lat="43.56863" lon="1.15632">
        <ele>221</ele>
        <time>2019-09-26T12:31:42+02:00</time>
      </trkpt>
      <trkpt lat="43.56858" lon="1.15645">
        <ele>220</ele>
        <time>2019-09-26T12:31:48+02:00</time>
      </trkpt>
      <trkpt lat="43.56855" lon="1.15657">
        <ele>221</ele>
        <time>2019-09-26T12:31:53+02:00</time>
      </trkpt>
      <trkpt lat="43.56853" lon="1.15672">
        <ele>222</ele>
        <time>2019-09-26T12:32:01+02:00</time>
      </trkpt>
      <trkpt lat="43.56849" lon="1.15686">
        <ele>224</ele>
        <time>2019-09-26T12:32:07+02:00</time>
      </trkpt>
      <trkpt lat="43.56845" lon="1.15698">
        <ele>224</ele>
        <time>2019-09-26T12:32:14+02:00</time>
      </trkpt>
      <trkpt lat="43.56843" lon="1.15712">
        <ele>224</ele>
        <time>2019-09-26T12:32:21+02:00</time>
      </trkpt>
      <trkpt lat="43.56838" lon="1.15725">
        <ele>223</ele>
        <time>2019-09-26T12:32:26+02:00</time>
      </trkpt>
      <trkpt lat="43.56833" lon="1.15736">
        <ele>221</ele>
        <time>2019-09-26T12:32:32+02:00</time>
      </trkpt>
      <trkpt lat="43.56827" lon="1.15747">
        <ele>220</ele>
        <time>2019-09-26T12:32:38+02:00</time>
      </trkpt>
      <trkpt lat="43.56821" lon="1.15759">
        <ele>218</ele>
        <time>2019-09-26T12:32:46+02:00</time>
      </trkpt>
      <trkpt lat="43.56815" lon="1.1577">
        <ele>218</ele>
        <time>2019-09-26T12:32:50+02:00</time>
      </trkpt>
      <trkpt lat="43.56808" lon="1.15779">
        <ele>218</ele>
        <time>2019-09-26T12:32:57+02:00</time>
      </trkpt>
      <trkpt lat="43.56799" lon="1.1578">
        <ele>217</ele>
        <time>2019-09-26T12:33:03+02:00</time>
      </trkpt>
      <trkpt lat="43.56791" lon="1.15785">
        <ele>216</ele>
        <time>2019-09-26T12:33:09+02:00</time>
      </trkpt>
      <trkpt lat="43.56781" lon="1.15787">
        <ele>217</ele>
        <time>2019-09-26T12:33:14+02:00</time>
      </trkpt>
      <trkpt lat="43.56772" lon="1.15791">
        <ele>217</ele>
        <time>2019-09-26T12:33:20+02:00</time>
      </trkpt>
      <trkpt lat="43.56764" lon="1.15798">
        <ele>216</ele>
        <time>2019-09-26T12:33:25+02:00</time>
      </trkpt>
      <trkpt lat="43.56757" lon="1.15806">
        <ele>216</ele>
        <time>2019-09-26T12:33:35+02:00</time>
      </trkpt>
      <trkpt lat="43.56749" lon="1.15801">
        <ele>213</ele>
        <time>2019-09-26T12:33:53+02:00</time>
      </trkpt>
      <trkpt lat="43.5674" lon="1.15801">
        <ele>212</ele>
        <time>2019-09-26T12:34:00+02:00</time>
      </trkpt>
      <trkpt lat="43.56748" lon="1.15807">
        <ele>214</ele>
        <time>2019-09-26T12:34:17+02:00</time>
      </trkpt>
      <trkpt lat="43.56752" lon="1.15819">
        <ele>214</ele>
        <time>2019-09-26T12:34:27+02:00</time>
      </trkpt>
      <trkpt lat="43.56753" lon="1.15832">
        <ele>213</ele>
        <time>2019-09-26T12:34:32+02:00</time>
      </trkpt>
      <trkpt lat="43.56751" lon="1.15846">
        <ele>213</ele>
        <time>2019-09-26T12:34:36+02:00</time>
      </trkpt>
      <trkpt lat="43.56751" lon="1.15859">
        <ele>213</ele>
        <time>2019-09-26T12:34:39+02:00</time>
      </trkpt>
      <trkpt lat="43.5675" lon="1.15874">
        <ele>212</ele>
        <time>2019-09-26T12:34:43+02:00</time>
      </trkpt>
      <trkpt lat="43.5675" lon="1.15888">
        <ele>210</ele>
        <time>2019-09-26T12:34:47+02:00</time>
      </trkpt>
      <trkpt lat="43.56744" lon="1.15902">
        <ele>210</ele>
        <time>2019-09-26T12:34:51+02:00</time>
      </trkpt>
      <trkpt lat="43.56737" lon="1.15914">
        <ele>209</ele>
        <time>2019-09-26T12:34:55+02:00</time>
      </trkpt>
      <trkpt lat="43.56728" lon="1.15924">
        <ele>211</ele>
        <time>2019-09-26T12:34:59+02:00</time>
      </trkpt>
      <trkpt lat="43.56719" lon="1.15933">
        <ele>212</ele>
        <time>2019-09-26T12:35:03+02:00</time>
      </trkpt>
      <trkpt lat="43.5671" lon="1.15941">
        <ele>214</ele>
        <time>2019-09-26T12:35:07+02:00</time>
      </trkpt>
      <trkpt lat="43.567" lon="1.15949">
        <ele>216</ele>
        <time>2019-09-26T12:35:11+02:00</time>
      </trkpt>
      <trkpt lat="43.56691" lon="1.15957">
        <ele>216</ele>
        <time>2019-09-26T12:35:15+02:00</time>
      </trkpt>
      <trkpt lat="43.56683" lon="1.15966">
        <ele>217</ele>
        <time>2019-09-26T12:35:19+02:00</time>
      </trkpt>
      <trkpt lat="43.56675" lon="1.15975">
        <ele>217</ele>
        <time>2019-09-26T12:35:23+02:00</time>
      </trkpt>
      <trkpt lat="43.56669" lon="1.15984">
        <ele>215</ele>
        <time>2019-09-26T12:35:30+02:00</time>
      </trkpt>
      <trkpt lat="43.56662" lon="1.15993">
        <ele>213</ele>
        <time>2019-09-26T12:35:36+02:00</time>
      </trkpt>
      <trkpt lat="43.56655" lon="1.16002">
        <ele>212</ele>
        <time>2019-09-26T12:35:41+02:00</time>
      </trkpt>
      <trkpt lat="43.56649" lon="1.1601">
        <ele>211</ele>
        <time>2019-09-26T12:35:46+02:00</time>
      </trkpt>
      <trkpt lat="43.56642" lon="1.16019">
        <ele>210</ele>
        <time>2019-09-26T12:35:52+02:00</time>
      </trkpt>
      <trkpt lat="43.56634" lon="1.16029">
        <ele>208</ele>
        <time>2019-09-26T12:35:57+02:00</time>
      </trkpt>
      <trkpt lat="43.56628" lon="1.16037">
        <ele>209</ele>
        <time>2019-09-26T12:36:02+02:00</time>
      </trkpt>
      <trkpt lat="43.56622" lon="1.16048">
        <ele>208</ele>
        <time>2019-09-26T12:36:09+02:00</time>
      </trkpt>
      <trkpt lat="43.56615" lon="1.16059">
        <ele>209</ele>
        <time>2019-09-26T12:36:15+02:00</time>
      </trkpt>
      <trkpt lat="43.56609" lon="1.1607">
        <ele>211</ele>
        <time>2019-09-26T12:36:22+02:00</time>
      </trkpt>
      <trkpt lat="43.56603" lon="1.16082">
        <ele>212</ele>
        <time>2019-09-26T12:36:29+02:00</time>
      </trkpt>
      <trkpt lat="43.56598" lon="1.16094">
        <ele>214</ele>
        <time>2019-09-26T12:36:35+02:00</time>
      </trkpt>
      <trkpt lat="43.56592" lon="1.16104">
        <ele>214</ele>
        <time>2019-09-26T12:36:39+02:00</time>
      </trkpt>
      <trkpt lat="43.56586" lon="1.16112">
        <ele>214</ele>
        <time>2019-09-26T12:36:44+02:00</time>
      </trkpt>
      <trkpt lat="43.56579" lon="1.16123">
        <ele>213</ele>
        <time>2019-09-26T12:36:50+02:00</time>
      </trkpt>
      <trkpt lat="43.56575" lon="1.16135">
        <ele>213</ele>
        <time>2019-09-26T12:36:56+02:00</time>
      </trkpt>
      <trkpt lat="43.56568" lon="1.16147">
        <ele>213</ele>
        <time>2019-09-26T12:37:03+02:00</time>
      </trkpt>
      <trkpt lat="43.56564" lon="1.16159">
        <ele>213</ele>
        <time>2019-09-26T12:37:08+02:00</time>
      </trkpt>
      <trkpt lat="43.56561" lon="1.16171">
        <ele>213</ele>
        <time>2019-09-26T12:37:13+02:00</time>
      </trkpt>
      <trkpt lat="43.56559" lon="1.16184">
        <ele>211</ele>
        <time>2019-09-26T12:37:20+02:00</time>
      </trkpt>
      <trkpt lat="43.5655" lon="1.16182">
        <ele>208</ele>
        <time>2019-09-26T12:37:57+02:00</time>
      </trkpt>
      <trkpt lat="43.56541" lon="1.16179">
        <ele>208</ele>
        <time>2019-09-26T12:38:05+02:00</time>
      </trkpt>
      <trkpt lat="43.56531" lon="1.16177">
        <ele>208</ele>
        <time>2019-09-26T12:38:11+02:00</time>
      </trkpt>
      <trkpt lat="43.56522" lon="1.16173">
        <ele>207</ele>
        <time>2019-09-26T12:38:16+02:00</time>
      </trkpt>
      <trkpt lat="43.56513" lon="1.16169">
        <ele>207</ele>
        <time>2019-09-26T12:38:21+02:00</time>
      </trkpt>
      <trkpt lat="43.56505" lon="1.16163">
        <ele>206</ele>
        <time>2019-09-26T12:38:28+02:00</time>
      </trkpt>
      <trkpt lat="43.56494" lon="1.16159">
        <ele>207</ele>
        <time>2019-09-26T12:38:35+02:00</time>
      </trkpt>
      <trkpt lat="43.56485" lon="1.16153">
        <ele>208</ele>
        <time>2019-09-26T12:38:41+02:00</time>
      </trkpt>
      <trkpt lat="43.56476" lon="1.1615">
        <ele>208</ele>
        <time>2019-09-26T12:38:48+02:00</time>
      </trkpt>
      <trkpt lat="43.56467" lon="1.16148">
        <ele>208</ele>
        <time>2019-09-26T12:38:54+02:00</time>
      </trkpt>
      <trkpt lat="43.56457" lon="1.16143">
        <ele>208</ele>
        <time>2019-09-26T12:39:01+02:00</time>
      </trkpt>
      <trkpt lat="43.56447" lon="1.16139">
        <ele>210</ele>
        <time>2019-09-26T12:39:05+02:00</time>
      </trkpt>
      <trkpt lat="43.56438" lon="1.16136">
        <ele>212</ele>
        <time>2019-09-26T12:39:13+02:00</time>
      </trkpt>
      <trkpt lat="43.56429" lon="1.16131">
        <ele>213</ele>
        <time>2019-09-26T12:39:19+02:00</time>
      </trkpt>
      <trkpt lat="43.5642" lon="1.16127">
        <ele>214</ele>
        <time>2019-09-26T12:39:27+02:00</time>
      </trkpt>
      <trkpt lat="43.56411" lon="1.16131">
        <ele>216</ele>
        <time>2019-09-26T12:39:34+02:00</time>
      </trkpt>
      <trkpt lat="43.56403" lon="1.16124">
        <ele>221</ele>
        <time>2019-09-26T12:40:01+02:00</time>
      </trkpt>
      <trkpt lat="43.56393" lon="1.16119">
        <ele>221</ele>
        <time>2019-09-26T12:40:06+02:00</time>
      </trkpt>
      <trkpt lat="43.56384" lon="1.16115">
        <ele>221</ele>
        <time>2019-09-26T12:40:11+02:00</time>
      </trkpt>
      <trkpt lat="43.56373" lon="1.16113">
        <ele>219</ele>
        <time>2019-09-26T12:40:21+02:00</time>
      </trkpt>
      <trkpt lat="43.56365" lon="1.16106">
        <ele>220</ele>
        <time>2019-09-26T12:40:27+02:00</time>
      </trkpt>
      <trkpt lat="43.56356" lon="1.16108">
        <ele>220</ele>
        <time>2019-09-26T12:40:36+02:00</time>
      </trkpt>
      <trkpt lat="43.56346" lon="1.16108">
        <ele>220</ele>
        <time>2019-09-26T12:40:42+02:00</time>
      </trkpt>
      <trkpt lat="43.56336" lon="1.1611">
        <ele>219</ele>
        <time>2019-09-26T12:40:49+02:00</time>
      </trkpt>
      <trkpt lat="43.56326" lon="1.16106">
        <ele>219</ele>
        <time>2019-09-26T12:40:56+02:00</time>
      </trkpt>
      <trkpt lat="43.56317" lon="1.16105">
        <ele>219</ele>
        <time>2019-09-26T12:41:02+02:00</time>
      </trkpt>
      <trkpt lat="43.56307" lon="1.16104">
        <ele>219</ele>
        <time>2019-09-26T12:41:07+02:00</time>
      </trkpt>
      <trkpt lat="43.56297" lon="1.16103">
        <ele>220</ele>
        <time>2019-09-26T12:41:13+02:00</time>
      </trkpt>
      <trkpt lat="43.56288" lon="1.16102">
        <ele>220</ele>
        <time>2019-09-26T12:41:17+02:00</time>
      </trkpt>
      <trkpt lat="43.56279" lon="1.16105">
        <ele>219</ele>
        <time>2019-09-26T12:41:23+02:00</time>
      </trkpt>
      <trkpt lat="43.56269" lon="1.16107">
        <ele>219</ele>
        <time>2019-09-26T12:41:30+02:00</time>
      </trkpt>
      <trkpt lat="43.5626" lon="1.16106">
        <ele>220</ele>
        <time>2019-09-26T12:41:37+02:00</time>
      </trkpt>
      <trkpt lat="43.56249" lon="1.16104">
        <ele>220</ele>
        <time>2019-09-26T12:41:42+02:00</time>
      </trkpt>
      <trkpt lat="43.5624" lon="1.16103">
        <ele>220</ele>
        <time>2019-09-26T12:41:48+02:00</time>
      </trkpt>
      <trkpt lat="43.56229" lon="1.16101">
        <ele>220</ele>
        <time>2019-09-26T12:41:55+02:00</time>
      </trkpt>
      <trkpt lat="43.56219" lon="1.16098">
        <ele>221</ele>
        <time>2019-09-26T12:42:01+02:00</time>
      </trkpt>
      <trkpt lat="43.56209" lon="1.16099">
        <ele>222</ele>
        <time>2019-09-26T12:42:06+02:00</time>
      </trkpt>
      <trkpt lat="43.56199" lon="1.16097">
        <ele>222</ele>
        <time>2019-09-26T12:42:13+02:00</time>
      </trkpt>
      <trkpt lat="43.56189" lon="1.16095">
        <ele>223</ele>
        <time>2019-09-26T12:42:19+02:00</time>
      </trkpt>
      <trkpt lat="43.56179" lon="1.16094">
        <ele>223</ele>
        <time>2019-09-26T12:42:26+02:00</time>
      </trkpt>
      <trkpt lat="43.5617" lon="1.16096">
        <ele>225</ele>
        <time>2019-09-26T12:42:32+02:00</time>
      </trkpt>
      <trkpt lat="43.5616" lon="1.16093">
        <ele>226</ele>
        <time>2019-09-26T12:42:40+02:00</time>
      </trkpt>
      <trkpt lat="43.5615" lon="1.16091">
        <ele>227</ele>
        <time>2019-09-26T12:42:48+02:00</time>
      </trkpt>
      <trkpt lat="43.56143" lon="1.16101">
        <ele>227</ele>
        <time>2019-09-26T12:42:56+02:00</time>
      </trkpt>
      <trkpt lat="43.5614" lon="1.16115">
        <ele>227</ele>
        <time>2019-09-26T12:43:02+02:00</time>
      </trkpt>
      <trkpt lat="43.5614" lon="1.16129">
        <ele>225</ele>
        <time>2019-09-26T12:43:08+02:00</time>
      </trkpt>
      <trkpt lat="43.56135" lon="1.1614">
        <ele>223</ele>
        <time>2019-09-26T12:43:14+02:00</time>
      </trkpt>
      <trkpt lat="43.56139" lon="1.16153">
        <ele>219</ele>
        <time>2019-09-26T12:43:21+02:00</time>
      </trkpt>
      <trkpt lat="43.5614" lon="1.16166">
        <ele>217</ele>
        <time>2019-09-26T12:43:28+02:00</time>
      </trkpt>
      <trkpt lat="43.56139" lon="1.1618">
        <ele>217</ele>
        <time>2019-09-26T12:43:38+02:00</time>
      </trkpt>
      <trkpt lat="43.56138" lon="1.16194">
        <ele>218</ele>
        <time>2019-09-26T12:43:43+02:00</time>
      </trkpt>
      <trkpt lat="43.56138" lon="1.16208">
        <ele>220</ele>
        <time>2019-09-26T12:43:49+02:00</time>
      </trkpt>
      <trkpt lat="43.56137" lon="1.16222">
        <ele>222</ele>
        <time>2019-09-26T12:43:55+02:00</time>
      </trkpt>
      <trkpt lat="43.56137" lon="1.16234">
        <ele>221</ele>
        <time>2019-09-26T12:44:00+02:00</time>
      </trkpt>
      <trkpt lat="43.56138" lon="1.16248">
        <ele>218</ele>
        <time>2019-09-26T12:44:49+02:00</time>
      </trkpt>
      <trkpt lat="43.56137" lon="1.16261">
        <ele>217</ele>
        <time>2019-09-26T12:44:55+02:00</time>
      </trkpt>
      <trkpt lat="43.56135" lon="1.16273">
        <ele>217</ele>
        <time>2019-09-26T12:45:00+02:00</time>
      </trkpt>
      <trkpt lat="43.56135" lon="1.16287">
        <ele>217</ele>
        <time>2019-09-26T12:45:06+02:00</time>
      </trkpt>
      <trkpt lat="43.56134" lon="1.163">
        <ele>215</ele>
        <time>2019-09-26T12:45:12+02:00</time>
      </trkpt>
      <trkpt lat="43.56132" lon="1.16314">
        <ele>212</ele>
        <time>2019-09-26T12:45:18+02:00</time>
      </trkpt>
      <trkpt lat="43.56132" lon="1.16327">
        <ele>210</ele>
        <time>2019-09-26T12:45:23+02:00</time>
      </trkpt>
      <trkpt lat="43.56129" lon="1.1634">
        <ele>209</ele>
        <time>2019-09-26T12:45:29+02:00</time>
      </trkpt>
      <trkpt lat="43.56127" lon="1.16352">
        <ele>210</ele>
        <time>2019-09-26T12:45:35+02:00</time>
      </trkpt>
      <trkpt lat="43.56127" lon="1.16366">
        <ele>209</ele>
        <time>2019-09-26T12:45:41+02:00</time>
      </trkpt>
      <trkpt lat="43.56128" lon="1.16379">
        <ele>210</ele>
        <time>2019-09-26T12:45:47+02:00</time>
      </trkpt>
      <trkpt lat="43.56122" lon="1.16392">
        <ele>211</ele>
        <time>2019-09-26T12:45:53+02:00</time>
      </trkpt>
      <trkpt lat="43.5612" lon="1.16406">
        <ele>212</ele>
        <time>2019-09-26T12:45:59+02:00</time>
      </trkpt>
      <trkpt lat="43.56118" lon="1.16418">
        <ele>212</ele>
        <time>2019-09-26T12:46:03+02:00</time>
      </trkpt>
      <trkpt lat="43.56114" lon="1.1643">
        <ele>212</ele>
        <time>2019-09-26T12:46:10+02:00</time>
      </trkpt>
      <trkpt lat="43.56111" lon="1.16443">
        <ele>213</ele>
        <time>2019-09-26T12:46:16+02:00</time>
      </trkpt>
      <trkpt lat="43.5611" lon="1.16457">
        <ele>213</ele>
        <time>2019-09-26T12:46:22+02:00</time>
      </trkpt>
      <trkpt lat="43.56106" lon="1.1647">
        <ele>214</ele>
        <time>2019-09-26T12:46:28+02:00</time>
      </trkpt>
      <trkpt lat="43.56102" lon="1.16483">
        <ele>215</ele>
        <time>2019-09-26T12:46:34+02:00</time>
      </trkpt>
      <trkpt lat="43.56099" lon="1.16496">
        <ele>216</ele>
        <time>2019-09-26T12:46:40+02:00</time>
      </trkpt>
      <trkpt lat="43.56095" lon="1.1651">
        <ele>217</ele>
        <time>2019-09-26T12:46:45+02:00</time>
      </trkpt>
      <trkpt lat="43.56095" lon="1.16523">
        <ele>219</ele>
        <time>2019-09-26T12:46:51+02:00</time>
      </trkpt>
      <trkpt lat="43.56093" lon="1.16535">
        <ele>220</ele>
        <time>2019-09-26T12:46:56+02:00</time>
      </trkpt>
      <trkpt lat="43.56093" lon="1.16551">
        <ele>219</ele>
        <time>2019-09-26T12:47:03+02:00</time>
      </trkpt>
      <trkpt lat="43.56093" lon="1.16567">
        <ele>218</ele>
        <time>2019-09-26T12:47:07+02:00</time>
      </trkpt>
      <trkpt lat="43.56092" lon="1.16584">
        <ele>217</ele>
        <time>2019-09-26T12:47:11+02:00</time>
      </trkpt>
      <trkpt lat="43.56092" lon="1.16597">
        <ele>216</ele>
        <time>2019-09-26T12:47:14+02:00</time>
      </trkpt>
      <trkpt lat="43.56092" lon="1.16612">
        <ele>214</ele>
        <time>2019-09-26T12:47:18+02:00</time>
      </trkpt>
      <trkpt lat="43.56091" lon="1.16629">
        <ele>212</ele>
        <time>2019-09-26T12:47:22+02:00</time>
      </trkpt>
      <trkpt lat="43.56092" lon="1.16645">
        <ele>209</ele>
        <time>2019-09-26T12:47:26+02:00</time>
      </trkpt>
      <trkpt lat="43.56091" lon="1.16661">
        <ele>207</ele>
        <time>2019-09-26T12:47:30+02:00</time>
      </trkpt>
      <trkpt lat="43.56089" lon="1.16676">
        <ele>207</ele>
        <time>2019-09-26T12:47:35+02:00</time>
      </trkpt>
      <trkpt lat="43.56087" lon="1.16688">
        <ele>206</ele>
        <time>2019-09-26T12:47:41+02:00</time>
      </trkpt>
      <trkpt lat="43.56085" lon="1.16702">
        <ele>206</ele>
        <time>2019-09-26T12:47:46+02:00</time>
      </trkpt>
      <trkpt lat="43.56086" lon="1.16718">
        <ele>207</ele>
        <time>2019-09-26T12:47:55+02:00</time>
      </trkpt>
      <trkpt lat="43.56086" lon="1.16731">
        <ele>209</ele>
        <time>2019-09-26T12:48:00+02:00</time>
      </trkpt>
      <trkpt lat="43.56084" lon="1.16744">
        <ele>210</ele>
        <time>2019-09-26T12:48:06+02:00</time>
      </trkpt>
      <trkpt lat="43.56083" lon="1.16757">
        <ele>210</ele>
        <time>2019-09-26T12:48:11+02:00</time>
      </trkpt>
      <trkpt lat="43.56083" lon="1.16769">
        <ele>211</ele>
        <time>2019-09-26T12:48:16+02:00</time>
      </trkpt>
      <trkpt lat="43.56084" lon="1.16784">
        <ele>209</ele>
        <time>2019-09-26T12:48:25+02:00</time>
      </trkpt>
      <trkpt lat="43.56081" lon="1.16796">
        <ele>208</ele>
        <time>2019-09-26T12:48:31+02:00</time>
      </trkpt>
      <trkpt lat="43.5608" lon="1.16811">
        <ele>207</ele>
        <time>2019-09-26T12:48:37+02:00</time>
      </trkpt>
      <trkpt lat="43.5608" lon="1.16824">
        <ele>206</ele>
        <time>2019-09-26T12:48:41+02:00</time>
      </trkpt>
      <trkpt lat="43.56079" lon="1.16837">
        <ele>204</ele>
        <time>2019-09-26T12:48:48+02:00</time>
      </trkpt>
      <trkpt lat="43.56078" lon="1.16851">
        <ele>204</ele>
        <time>2019-09-26T12:48:54+02:00</time>
      </trkpt>
      <trkpt lat="43.56078" lon="1.16864">
        <ele>204</ele>
        <time>2019-09-26T12:48:59+02:00</time>
      </trkpt>
      <trkpt lat="43.56077" lon="1.16878">
        <ele>203</ele>
        <time>2019-09-26T12:49:04+02:00</time>
      </trkpt>
      <trkpt lat="43.56078" lon="1.16892">
        <ele>202</ele>
        <time>2019-09-26T12:49:10+02:00</time>
      </trkpt>
      <trkpt lat="43.56077" lon="1.16905">
        <ele>202</ele>
        <time>2019-09-26T12:49:14+02:00</time>
      </trkpt>
      <trkpt lat="43.56076" lon="1.16919">
        <ele>203</ele>
        <time>2019-09-26T12:49:20+02:00</time>
      </trkpt>
      <trkpt lat="43.56074" lon="1.16931">
        <ele>205</ele>
        <time>2019-09-26T12:49:27+02:00</time>
      </trkpt>
      <trkpt lat="43.56076" lon="1.16944">
        <ele>205</ele>
        <time>2019-09-26T12:49:31+02:00</time>
      </trkpt>
      <trkpt lat="43.56076" lon="1.16957">
        <ele>204</ele>
        <time>2019-09-26T12:49:37+02:00</time>
      </trkpt>
      <trkpt lat="43.56075" lon="1.1697">
        <ele>205</ele>
        <time>2019-09-26T12:49:43+02:00</time>
      </trkpt>
      <trkpt lat="43.56075" lon="1.16985">
        <ele>205</ele>
        <time>2019-09-26T12:49:51+02:00</time>
      </trkpt>
      <trkpt lat="43.56065" lon="1.16989">
        <ele>205</ele>
        <time>2019-09-26T12:50:20+02:00</time>
      </trkpt>
      <trkpt lat="43.56056" lon="1.16989">
        <ele>206</ele>
        <time>2019-09-26T12:50:30+02:00</time>
      </trkpt>
      <trkpt lat="43.56046" lon="1.16986">
        <ele>206</ele>
        <time>2019-09-26T12:50:36+02:00</time>
      </trkpt>
      <trkpt lat="43.56036" lon="1.16985">
        <ele>207</ele>
        <time>2019-09-26T12:50:41+02:00</time>
      </trkpt>
      <trkpt lat="43.56027" lon="1.16984">
        <ele>206</ele>
        <time>2019-09-26T12:50:46+02:00</time>
      </trkpt>
      <trkpt lat="43.56017" lon="1.16982">
        <ele>205</ele>
        <time>2019-09-26T12:50:51+02:00</time>
      </trkpt>
      <trkpt lat="43.56007" lon="1.16979">
        <ele>205</ele>
        <time>2019-09-26T12:50:57+02:00</time>
      </trkpt>
      <trkpt lat="43.55997" lon="1.16978">
        <ele>204</ele>
        <time>2019-09-26T12:51:03+02:00</time>
      </trkpt>
      <trkpt lat="43.55987" lon="1.16974">
        <ele>204</ele>
        <time>2019-09-26T12:51:10+02:00</time>
      </trkpt>
      <trkpt lat="43.55978" lon="1.16972">
        <ele>204</ele>
        <time>2019-09-26T12:51:16+02:00</time>
      </trkpt>
      <trkpt lat="43.55967" lon="1.16972">
        <ele>205</ele>
        <time>2019-09-26T12:51:23+02:00</time>
      </trkpt>
      <trkpt lat="43.55958" lon="1.16967">
        <ele>207</ele>
        <time>2019-09-26T12:51:30+02:00</time>
      </trkpt>
      <trkpt lat="43.55947" lon="1.16963">
        <ele>208</ele>
        <time>2019-09-26T12:51:37+02:00</time>
      </trkpt>
      <trkpt lat="43.55938" lon="1.1696">
        <ele>210</ele>
        <time>2019-09-26T12:51:42+02:00</time>
      </trkpt>
      <trkpt lat="43.55929" lon="1.16958">
        <ele>210</ele>
        <time>2019-09-26T12:51:49+02:00</time>
      </trkpt>
      <trkpt lat="43.55921" lon="1.16965">
        <ele>211</ele>
        <time>2019-09-26T12:52:01+02:00</time>
      </trkpt>
      <trkpt lat="43.5592" lon="1.16978">
        <ele>213</ele>
        <time>2019-09-26T12:52:08+02:00</time>
      </trkpt>
      <trkpt lat="43.55917" lon="1.1699">
        <ele>215</ele>
        <time>2019-09-26T12:52:13+02:00</time>
      </trkpt>
      <trkpt lat="43.5591" lon="1.17001">
        <ele>216</ele>
        <time>2019-09-26T12:52:20+02:00</time>
      </trkpt>
      <trkpt lat="43.55906" lon="1.17012">
        <ele>218</ele>
        <time>2019-09-26T12:52:24+02:00</time>
      </trkpt>
      <trkpt lat="43.55903" lon="1.17026">
        <ele>220</ele>
        <time>2019-09-26T12:52:32+02:00</time>
      </trkpt>
      <trkpt lat="43.55899" lon="1.17039">
        <ele>219</ele>
        <time>2019-09-26T12:52:37+02:00</time>
      </trkpt>
      <trkpt lat="43.55894" lon="1.17051">
        <ele>217</ele>
        <time>2019-09-26T12:52:43+02:00</time>
      </trkpt>
      <trkpt lat="43.55892" lon="1.17065">
        <ele>215</ele>
        <time>2019-09-26T12:52:48+02:00</time>
      </trkpt>
      <trkpt lat="43.55889" lon="1.17077">
        <ele>211</ele>
        <time>2019-09-26T12:52:55+02:00</time>
      </trkpt>
      <trkpt lat="43.55887" lon="1.17092">
        <ele>208</ele>
        <time>2019-09-26T12:53:01+02:00</time>
      </trkpt>
      <trkpt lat="43.55884" lon="1.17105">
        <ele>207</ele>
        <time>2019-09-26T12:53:07+02:00</time>
      </trkpt>
      <trkpt lat="43.55877" lon="1.17116">
        <ele>207</ele>
        <time>2019-09-26T12:53:13+02:00</time>
      </trkpt>
      <trkpt lat="43.55873" lon="1.1713">
        <ele>208</ele>
        <time>2019-09-26T12:53:18+02:00</time>
      </trkpt>
      <trkpt lat="43.5587" lon="1.17145">
        <ele>210</ele>
        <time>2019-09-26T12:53:25+02:00</time>
      </trkpt>
      <trkpt lat="43.55869" lon="1.17159">
        <ele>209</ele>
        <time>2019-09-26T12:53:31+02:00</time>
      </trkpt>
      <trkpt lat="43.55863" lon="1.17172">
        <ele>208</ele>
        <time>2019-09-26T12:53:38+02:00</time>
      </trkpt>
      <trkpt lat="43.55862" lon="1.17184">
        <ele>209</ele>
        <time>2019-09-26T12:53:44+02:00</time>
      </trkpt>
      <trkpt lat="43.55859" lon="1.17198">
        <ele>211</ele>
        <time>2019-09-26T12:53:50+02:00</time>
      </trkpt>
      <trkpt lat="43.55858" lon="1.17212">
        <ele>213</ele>
        <time>2019-09-26T12:53:58+02:00</time>
      </trkpt>
      <trkpt lat="43.55854" lon="1.17225">
        <ele>212</ele>
        <time>2019-09-26T12:54:03+02:00</time>
      </trkpt>
      <trkpt lat="43.5585" lon="1.17239">
        <ele>207</ele>
        <time>2019-09-26T12:54:11+02:00</time>
      </trkpt>
      <trkpt lat="43.55848" lon="1.17251">
        <ele>206</ele>
        <time>2019-09-26T12:54:15+02:00</time>
      </trkpt>
      <trkpt lat="43.55845" lon="1.17265">
        <ele>204</ele>
        <time>2019-09-26T12:54:22+02:00</time>
      </trkpt>
      <trkpt lat="43.55842" lon="1.17278">
        <ele>204</ele>
        <time>2019-09-26T12:54:26+02:00</time>
      </trkpt>
      <trkpt lat="43.55838" lon="1.1729">
        <ele>202</ele>
        <time>2019-09-26T12:54:34+02:00</time>
      </trkpt>
      <trkpt lat="43.55834" lon="1.17302">
        <ele>202</ele>
        <time>2019-09-26T12:54:38+02:00</time>
      </trkpt>
      <trkpt lat="43.55831" lon="1.17316">
        <ele>202</ele>
        <time>2019-09-26T12:54:46+02:00</time>
      </trkpt>
      <trkpt lat="43.55828" lon="1.1733">
        <ele>202</ele>
        <time>2019-09-26T12:54:50+02:00</time>
      </trkpt>
      <trkpt lat="43.55826" lon="1.17342">
        <ele>202</ele>
        <time>2019-09-26T12:54:57+02:00</time>
      </trkpt>
      <trkpt lat="43.55823" lon="1.17355">
        <ele>203</ele>
        <time>2019-09-26T12:55:03+02:00</time>
      </trkpt>
      <trkpt lat="43.55819" lon="1.17369">
        <ele>204</ele>
        <time>2019-09-26T12:55:10+02:00</time>
      </trkpt>
      <trkpt lat="43.55816" lon="1.17382">
        <ele>206</ele>
        <time>2019-09-26T12:55:14+02:00</time>
      </trkpt>
      <trkpt lat="43.55812" lon="1.17394">
        <ele>206</ele>
        <time>2019-09-26T12:55:21+02:00</time>
      </trkpt>
      <trkpt lat="43.55809" lon="1.17406">
        <ele>207</ele>
        <time>2019-09-26T12:55:25+02:00</time>
      </trkpt>
      <trkpt lat="43.55806" lon="1.17418">
        <ele>208</ele>
        <time>2019-09-26T12:55:32+02:00</time>
      </trkpt>
      <trkpt lat="43.55802" lon="1.17431">
        <ele>209</ele>
        <time>2019-09-26T12:55:36+02:00</time>
      </trkpt>
      <trkpt lat="43.55799" lon="1.17443">
        <ele>208</ele>
        <time>2019-09-26T12:55:42+02:00</time>
      </trkpt>
      <trkpt lat="43.55795" lon="1.17456">
        <ele>208</ele>
        <time>2019-09-26T12:55:47+02:00</time>
      </trkpt>
      <trkpt lat="43.55792" lon="1.17468">
        <ele>208</ele>
        <time>2019-09-26T12:55:51+02:00</time>
      </trkpt>
      <trkpt lat="43.55792" lon="1.17481">
        <ele>204</ele>
        <time>2019-09-26T12:55:59+02:00</time>
      </trkpt>
      <trkpt lat="43.5579" lon="1.17493">
        <ele>204</ele>
        <time>2019-09-26T12:56:05+02:00</time>
      </trkpt>
      <trkpt lat="43.55788" lon="1.17507">
        <ele>203</ele>
        <time>2019-09-26T12:56:11+02:00</time>
      </trkpt>
      <trkpt lat="43.55785" lon="1.1752">
        <ele>201</ele>
        <time>2019-09-26T12:56:40+02:00</time>
      </trkpt>
      <trkpt lat="43.55781" lon="1.17532">
        <ele>201</ele>
        <time>2019-09-26T12:56:47+02:00</time>
      </trkpt>
      <trkpt lat="43.55777" lon="1.17544">
        <ele>202</ele>
        <time>2019-09-26T12:56:51+02:00</time>
      </trkpt>
      <trkpt lat="43.55775" lon="1.17557">
        <ele>204</ele>
        <time>2019-09-26T12:56:58+02:00</time>
      </trkpt>
      <trkpt lat="43.55771" lon="1.17572">
        <ele>205</ele>
        <time>2019-09-26T12:57:03+02:00</time>
      </trkpt>
      <trkpt lat="43.55768" lon="1.17585">
        <ele>205</ele>
        <time>2019-09-26T12:57:10+02:00</time>
      </trkpt>
      <trkpt lat="43.55763" lon="1.17596">
        <ele>206</ele>
        <time>2019-09-26T12:57:14+02:00</time>
      </trkpt>
      <trkpt lat="43.55761" lon="1.17611">
        <ele>205</ele>
        <time>2019-09-26T12:57:22+02:00</time>
      </trkpt>
      <trkpt lat="43.55756" lon="1.17623">
        <ele>204</ele>
        <time>2019-09-26T12:57:27+02:00</time>
      </trkpt>
      <trkpt lat="43.55754" lon="1.17637">
        <ele>204</ele>
        <time>2019-09-26T12:57:34+02:00</time>
      </trkpt>
      <trkpt lat="43.55751" lon="1.17649">
        <ele>205</ele>
        <time>2019-09-26T12:57:39+02:00</time>
      </trkpt>
      <trkpt lat="43.5575" lon="1.17664">
        <ele>204</ele>
        <time>2019-09-26T12:57:47+02:00</time>
      </trkpt>
      <trkpt lat="43.55747" lon="1.17675">
        <ele>204</ele>
        <time>2019-09-26T12:57:52+02:00</time>
      </trkpt>
      <trkpt lat="43.55743" lon="1.17688">
        <ele>203</ele>
        <time>2019-09-26T12:57:59+02:00</time>
      </trkpt>
      <trkpt lat="43.5574" lon="1.17699">
        <ele>204</ele>
        <time>2019-09-26T12:58:03+02:00</time>
      </trkpt>
      <trkpt lat="43.55739" lon="1.17712">
        <ele>204</ele>
        <time>2019-09-26T12:58:10+02:00</time>
      </trkpt>
      <trkpt lat="43.55736" lon="1.17726">
        <ele>203</ele>
        <time>2019-09-26T12:58:16+02:00</time>
      </trkpt>
    </trkseg>
  </trk>
</gpx>